<?xml version="1.0" encoding="UTF-8" standalone="no" ?>
<gpx xmlns="http://www.topografix.com/GPX/1/1" xmlns:xsi="http://www.w3.org/2001/XMLSchema-instance" xsi:schemaLocation="http://www.topografix.com/GPX/1/1 http://www.topografix.com/GPX/1/1/gpx.xsd" version="1.1" creator="VisuGPX - https://www.visugpx.com">
  <metadata>
    <name>Saint-Laurent-du-Minier - tour du pic d'Anjeau</name>
    <desc><![CDATA[2017-05 - Saint-Laurent-du-Minier - grotte d'Anjeau - tour du pic d'Anjeau - cascade de la Vis

[b]album[/b] : [url]https://goo.gl/photos/ehQ6ZHKS2THeYKhGA[/url]
[img]https://3.bp.blogspot.com/-rJx6INhCzek/WRHVK9AkozI/AAAAAAAATB0/NGWeTYomi3Q5aJonuTzEWbhlKPA-pSyfACLcB/s1600/2017-05_St-laurent-minier_Anjeau_photos_i.JPG[/img]
[b]Idées de randonnées dans la même région[/b]
Parcours : [url]https://www.visugpx.com/membres/24856/causses/la-vis-navacelles/[/url]
Photos : [url]https://jcvertygo.blogspot.com/p/vis.html[/url]]]></desc>
  </metadata>
  <trk>
    <name><![CDATA[Saint-Laurent-du-Minier - tour du pic d'Anjeau_1]]></name>
    <trkseg>
      <trkpt lat="43.93007" lon="3.65663">
        <ele>184.9</ele>
        <time>2017-05-08T12:14:03Z</time>
      </trkpt>
      <trkpt lat="43.92999" lon="3.65656">
        <ele>179.07290290617</ele>
        <time>2017-05-08T12:14:08Z</time>
      </trkpt>
      <trkpt lat="43.92998" lon="3.65651">
        <ele>179.07290290617</ele>
        <time>2017-05-08T12:14:13Z</time>
      </trkpt>
      <trkpt lat="43.92998" lon="3.65649">
        <ele>179.07290290617</ele>
        <time>2017-05-08T12:14:18Z</time>
      </trkpt>
      <trkpt lat="43.93002" lon="3.65645">
        <ele>177.90135688818</ele>
        <time>2017-05-08T12:14:23Z</time>
      </trkpt>
      <trkpt lat="43.93007" lon="3.65642">
        <ele>177.90135688818</ele>
        <time>2017-05-08T12:14:28Z</time>
      </trkpt>
      <trkpt lat="43.93012" lon="3.65639">
        <ele>177.90966034027</ele>
        <time>2017-05-08T12:14:33Z</time>
      </trkpt>
      <trkpt lat="43.93018" lon="3.65634">
        <ele>177.90966034027</ele>
        <time>2017-05-08T12:14:38Z</time>
      </trkpt>
      <trkpt lat="43.93027" lon="3.65632">
        <ele>178.00361991179</ele>
        <time>2017-05-08T12:14:43Z</time>
      </trkpt>
      <trkpt lat="43.93031" lon="3.65626">
        <ele>178.00361991179</ele>
        <time>2017-05-08T12:14:48Z</time>
      </trkpt>
      <trkpt lat="43.93037" lon="3.65623">
        <ele>177.97877701044</ele>
        <time>2017-05-08T12:14:53Z</time>
      </trkpt>
      <trkpt lat="43.93044" lon="3.6562">
        <ele>177.97877701044</ele>
        <time>2017-05-08T12:14:58Z</time>
      </trkpt>
      <trkpt lat="43.93051" lon="3.65615">
        <ele>177.85420262953</ele>
        <time>2017-05-08T12:15:03Z</time>
      </trkpt>
      <trkpt lat="43.93057" lon="3.6561">
        <ele>177.85420262953</ele>
        <time>2017-05-08T12:15:08Z</time>
      </trkpt>
      <trkpt lat="43.93064" lon="3.65609">
        <ele>177.60473379576</ele>
        <time>2017-05-08T12:15:13Z</time>
      </trkpt>
      <trkpt lat="43.93069" lon="3.65608">
        <ele>177.60473379576</ele>
        <time>2017-05-08T12:15:18Z</time>
      </trkpt>
      <trkpt lat="43.93071" lon="3.65604">
        <ele>177.24763847538</ele>
        <time>2017-05-08T12:15:23Z</time>
      </trkpt>
      <trkpt lat="43.93075" lon="3.65599">
        <ele>177.24763847538</ele>
        <time>2017-05-08T12:15:28Z</time>
      </trkpt>
      <trkpt lat="43.93091" lon="3.65589">
        <ele>176.74425175632</ele>
        <time>2017-05-08T12:15:44Z</time>
      </trkpt>
      <trkpt lat="43.93096" lon="3.65585">
        <ele>176.74425175632</ele>
        <time>2017-05-08T12:15:48Z</time>
      </trkpt>
      <trkpt lat="43.931" lon="3.65579">
        <ele>176.28069828796</ele>
        <time>2017-05-08T12:15:53Z</time>
      </trkpt>
      <trkpt lat="43.93148" lon="3.65554">
        <ele>177.42485785636</ele>
        <time>2017-05-08T12:16:42Z</time>
      </trkpt>
      <trkpt lat="43.93152" lon="3.6555">
        <ele>177.42485785636</ele>
        <time>2017-05-08T12:16:43Z</time>
      </trkpt>
      <trkpt lat="43.93164" lon="3.65547">
        <ele>179.20760708379</ele>
        <time>2017-05-08T12:16:58Z</time>
      </trkpt>
      <trkpt lat="43.9317" lon="3.65541">
        <ele>179.20760708379</ele>
        <time>2017-05-08T12:16:59Z</time>
      </trkpt>
      <trkpt lat="43.93179" lon="3.65532">
        <ele>181.73847776381</ele>
        <time>2017-05-08T12:17:12Z</time>
      </trkpt>
      <trkpt lat="43.9318" lon="3.65531">
        <ele>181.73847776381</ele>
        <time>2017-05-08T12:17:13Z</time>
      </trkpt>
      <trkpt lat="43.93201" lon="3.65487">
        <ele>185.05772606594</ele>
        <time>2017-05-08T12:17:58Z</time>
      </trkpt>
      <trkpt lat="43.93201" lon="3.65475">
        <ele>185.05772606594</ele>
        <time>2017-05-08T12:18:16Z</time>
      </trkpt>
      <trkpt lat="43.93205" lon="3.65468">
        <ele>188.85742117024</ele>
        <time>2017-05-08T12:18:16Z</time>
      </trkpt>
      <trkpt lat="43.93215" lon="3.65452">
        <ele>192.70459647379</ele>
        <time>2017-05-08T12:18:36Z</time>
      </trkpt>
      <trkpt lat="43.93216" lon="3.65451">
        <ele>192.70459647379</ele>
        <time>2017-05-08T12:18:36Z</time>
      </trkpt>
      <trkpt lat="43.93222" lon="3.65441">
        <ele>196.26335060401</ele>
        <time>2017-05-08T12:18:38Z</time>
      </trkpt>
      <trkpt lat="43.93231" lon="3.65426">
        <ele>199.25969644928</ele>
        <time>2017-05-08T12:18:54Z</time>
      </trkpt>
      <trkpt lat="43.9324" lon="3.65415">
        <ele>201.81236759913</ele>
        <time>2017-05-08T12:18:54Z</time>
      </trkpt>
      <trkpt lat="43.93255" lon="3.6538">
        <ele>203.76478598104</ele>
        <time>2017-05-08T12:19:41Z</time>
      </trkpt>
      <trkpt lat="43.93244" lon="3.65383">
        <ele>205.43356538897</ele>
        <time>2017-05-08T12:20:05Z</time>
      </trkpt>
      <trkpt lat="43.93243" lon="3.6538">
        <ele>205.43356538897</ele>
        <time>2017-05-08T12:20:20Z</time>
      </trkpt>
      <trkpt lat="43.93247" lon="3.65386">
        <ele>205.43356538897</ele>
        <time>2017-05-08T12:21:15Z</time>
      </trkpt>
      <trkpt lat="43.93253" lon="3.65371">
        <ele>206.65491215623</ele>
        <time>2017-05-08T12:21:32Z</time>
      </trkpt>
      <trkpt lat="43.93262" lon="3.65356">
        <ele>207.58673438417</ele>
        <time>2017-05-08T12:21:45Z</time>
      </trkpt>
      <trkpt lat="43.93256" lon="3.65351">
        <ele>207.58673438417</ele>
        <time>2017-05-08T12:22:00Z</time>
      </trkpt>
      <trkpt lat="43.93249" lon="3.65329">
        <ele>208.29281581262</ele>
        <time>2017-05-08T12:22:23Z</time>
      </trkpt>
      <trkpt lat="43.93248" lon="3.65325">
        <ele>208.29281581262</ele>
        <time>2017-05-08T12:22:23Z</time>
      </trkpt>
      <trkpt lat="43.93245" lon="3.65315">
        <ele>208.79906007721</ele>
        <time>2017-05-08T12:22:40Z</time>
      </trkpt>
      <trkpt lat="43.93244" lon="3.65312">
        <ele>208.79906007721</ele>
        <time>2017-05-08T12:22:40Z</time>
      </trkpt>
      <trkpt lat="43.93235" lon="3.65308">
        <ele>209.04082228678</ele>
        <time>2017-05-08T12:23:00Z</time>
      </trkpt>
      <trkpt lat="43.93216" lon="3.65308">
        <ele>209.28712911243</ele>
        <time>2017-05-08T12:23:21Z</time>
      </trkpt>
      <trkpt lat="43.93214" lon="3.65309">
        <ele>209.28712911243</ele>
        <time>2017-05-08T12:23:23Z</time>
      </trkpt>
      <trkpt lat="43.93211" lon="3.65308">
        <ele>209.28712911243</ele>
        <time>2017-05-08T12:23:32Z</time>
      </trkpt>
      <trkpt lat="43.93211" lon="3.65308">
        <ele>209.28712911243</ele>
        <time>2017-05-08T12:23:33Z</time>
      </trkpt>
      <trkpt lat="43.93212" lon="3.65301">
        <ele>209.46657345364</ele>
        <time>2017-05-08T12:23:41Z</time>
      </trkpt>
      <trkpt lat="43.93219" lon="3.65283">
        <ele>209.64072719989</ele>
        <time>2017-05-08T12:23:53Z</time>
      </trkpt>
      <trkpt lat="43.93219" lon="3.65276">
        <ele>209.64072719989</ele>
        <time>2017-05-08T12:23:58Z</time>
      </trkpt>
      <trkpt lat="43.9322" lon="3.65273">
        <ele>209.64072719989</ele>
        <time>2017-05-08T12:24:09Z</time>
      </trkpt>
      <trkpt lat="43.93221" lon="3.6526">
        <ele>209.86516025059</ele>
        <time>2017-05-08T12:24:28Z</time>
      </trkpt>
      <trkpt lat="43.93227" lon="3.65252">
        <ele>209.86516025059</ele>
        <time>2017-05-08T12:24:54Z</time>
      </trkpt>
      <trkpt lat="43.93228" lon="3.6525">
        <ele>210.06579056964</ele>
        <time>2017-05-08T12:24:54Z</time>
      </trkpt>
      <trkpt lat="43.93228" lon="3.6525">
        <ele>210.06579056964</ele>
        <time>2017-05-08T12:25:15Z</time>
      </trkpt>
      <trkpt lat="43.93226" lon="3.65216">
        <ele>210.50799466123</ele>
        <time>2017-05-08T12:25:52Z</time>
      </trkpt>
      <trkpt lat="43.93212" lon="3.65232">
        <ele>210.99401941799</ele>
        <time>2017-05-08T12:26:18Z</time>
      </trkpt>
      <trkpt lat="43.93207" lon="3.65242">
        <ele>210.99401941799</ele>
        <time>2017-05-08T12:26:18Z</time>
      </trkpt>
      <trkpt lat="43.93202" lon="3.6525">
        <ele>211.63283553133</ele>
        <time>2017-05-08T12:26:30Z</time>
      </trkpt>
      <trkpt lat="43.93181" lon="3.65269">
        <ele>212.31785579279</ele>
        <time>2017-05-08T12:27:03Z</time>
      </trkpt>
      <trkpt lat="43.93145" lon="3.65315">
        <ele>213.42594561452</ele>
        <time>2017-05-08T12:27:46Z</time>
      </trkpt>
      <trkpt lat="43.93144" lon="3.65319">
        <ele>213.42594561452</ele>
        <time>2017-05-08T12:27:46Z</time>
      </trkpt>
      <trkpt lat="43.93127" lon="3.65319">
        <ele>214.53811275504</ele>
        <time>2017-05-08T12:28:24Z</time>
      </trkpt>
      <trkpt lat="43.93093" lon="3.65337">
        <ele>216.17958220783</ele>
        <time>2017-05-08T12:29:51Z</time>
      </trkpt>
      <trkpt lat="43.9309" lon="3.65333">
        <ele>216.17958220783</ele>
        <time>2017-05-08T12:30:05Z</time>
      </trkpt>
      <trkpt lat="43.93089" lon="3.6533">
        <ele>216.17958220783</ele>
        <time>2017-05-08T12:30:05Z</time>
      </trkpt>
      <trkpt lat="43.9308" lon="3.65326">
        <ele>217.83431722735</ele>
        <time>2017-05-08T12:30:47Z</time>
      </trkpt>
      <trkpt lat="43.93081" lon="3.65324">
        <ele>217.83431722735</ele>
        <time>2017-05-08T12:31:18Z</time>
      </trkpt>
      <trkpt lat="43.93086" lon="3.65303">
        <ele>219.80238156081</ele>
        <time>2017-05-08T12:31:36Z</time>
      </trkpt>
      <trkpt lat="43.9309" lon="3.65281">
        <ele>222.0058543939</ele>
        <time>2017-05-08T12:31:55Z</time>
      </trkpt>
      <trkpt lat="43.93088" lon="3.65281">
        <ele>222.0058543939</ele>
        <time>2017-05-08T12:31:55Z</time>
      </trkpt>
      <trkpt lat="43.93088" lon="3.65267">
        <ele>224.90855431344</ele>
        <time>2017-05-08T12:32:28Z</time>
      </trkpt>
      <trkpt lat="43.93087" lon="3.65259">
        <ele>224.90855431344</ele>
        <time>2017-05-08T12:32:47Z</time>
      </trkpt>
      <trkpt lat="43.93095" lon="3.65244">
        <ele>228.53645995906</ele>
        <time>2017-05-08T12:33:09Z</time>
      </trkpt>
      <trkpt lat="43.93094" lon="3.65227">
        <ele>232.57073226542</ele>
        <time>2017-05-08T12:33:33Z</time>
      </trkpt>
      <trkpt lat="43.93098" lon="3.65211">
        <ele>236.55912442515</ele>
        <time>2017-05-08T12:33:59Z</time>
      </trkpt>
      <trkpt lat="43.93092" lon="3.6521">
        <ele>236.55912442515</ele>
        <time>2017-05-08T12:34:24Z</time>
      </trkpt>
      <trkpt lat="43.93085" lon="3.65217">
        <ele>240.8055460224</ele>
        <time>2017-05-08T12:34:41Z</time>
      </trkpt>
      <trkpt lat="43.93079" lon="3.65222">
        <ele>240.8055460224</ele>
        <time>2017-05-08T12:34:41Z</time>
      </trkpt>
      <trkpt lat="43.93081" lon="3.65195">
        <ele>246.11814229095</ele>
        <time>2017-05-08T12:35:29Z</time>
      </trkpt>
      <trkpt lat="43.93081" lon="3.65186">
        <ele>246.11814229095</ele>
        <time>2017-05-08T12:35:51Z</time>
      </trkpt>
      <trkpt lat="43.9308" lon="3.65186">
        <ele>246.11814229095</ele>
        <time>2017-05-08T12:35:51Z</time>
      </trkpt>
      <trkpt lat="43.93069" lon="3.65192">
        <ele>252.07815403788</ele>
        <time>2017-05-08T12:36:24Z</time>
      </trkpt>
      <trkpt lat="43.9307" lon="3.65189">
        <ele>252.07815403788</ele>
        <time>2017-05-08T12:37:09Z</time>
      </trkpt>
      <trkpt lat="43.93061" lon="3.65197">
        <ele>260.05068961602</ele>
        <time>2017-05-08T12:37:23Z</time>
      </trkpt>
      <trkpt lat="43.93066" lon="3.65167">
        <ele>267.87607594634</ele>
        <time>2017-05-08T12:38:14Z</time>
      </trkpt>
      <trkpt lat="43.9307" lon="3.65159">
        <ele>267.87607594634</ele>
        <time>2017-05-08T12:38:14Z</time>
      </trkpt>
      <trkpt lat="43.93067" lon="3.65139">
        <ele>275.28328214399</ele>
        <time>2017-05-08T12:38:48Z</time>
      </trkpt>
      <trkpt lat="43.93039" lon="3.65139">
        <ele>284.00258410026</ele>
        <time>2017-05-08T12:40:24Z</time>
      </trkpt>
      <trkpt lat="43.9304" lon="3.65114">
        <ele>293.696985355</ele>
        <time>2017-05-08T12:41:16Z</time>
      </trkpt>
      <trkpt lat="43.93055" lon="3.65022">
        <ele>304.89666588155</ele>
        <time>2017-05-08T12:43:18Z</time>
      </trkpt>
      <trkpt lat="43.93048" lon="3.65011">
        <ele>316.26062703134</ele>
        <time>2017-05-08T12:43:53Z</time>
      </trkpt>
      <trkpt lat="43.93054" lon="3.6499">
        <ele>327.14310468613</ele>
        <time>2017-05-08T12:44:25Z</time>
      </trkpt>
      <trkpt lat="43.93053" lon="3.64991">
        <ele>327.14310468613</ele>
        <time>2017-05-08T12:44:26Z</time>
      </trkpt>
      <trkpt lat="43.93045" lon="3.6499">
        <ele>337.54066748161</ele>
        <time>2017-05-08T12:44:47Z</time>
      </trkpt>
      <trkpt lat="43.93045" lon="3.64963">
        <ele>348.48851819809</ele>
        <time>2017-05-08T12:45:55Z</time>
      </trkpt>
      <trkpt lat="43.93048" lon="3.64954">
        <ele>348.48851819809</ele>
        <time>2017-05-08T12:46:58Z</time>
      </trkpt>
      <trkpt lat="43.9305" lon="3.64951">
        <ele>359.84275158933</ele>
        <time>2017-05-08T12:46:58Z</time>
      </trkpt>
      <trkpt lat="43.93062" lon="3.6492">
        <ele>370.15740770855</ele>
        <time>2017-05-08T12:47:43Z</time>
      </trkpt>
      <trkpt lat="43.93067" lon="3.64899">
        <ele>379.39335466354</ele>
        <time>2017-05-08T12:48:02Z</time>
      </trkpt>
      <trkpt lat="43.93068" lon="3.64897">
        <ele>379.39335466354</ele>
        <time>2017-05-08T12:48:03Z</time>
      </trkpt>
      <trkpt lat="43.93067" lon="3.64896">
        <ele>379.39335466354</ele>
        <time>2017-05-08T12:48:08Z</time>
      </trkpt>
      <trkpt lat="43.9307" lon="3.64887">
        <ele>387.56358055556</ele>
        <time>2017-05-08T12:48:18Z</time>
      </trkpt>
      <trkpt lat="43.93072" lon="3.64882">
        <ele>387.56358055556</ele>
        <time>2017-05-08T12:48:23Z</time>
      </trkpt>
      <trkpt lat="43.93075" lon="3.64878">
        <ele>387.56358055556</ele>
        <time>2017-05-08T12:48:33Z</time>
      </trkpt>
      <trkpt lat="43.93076" lon="3.64876">
        <ele>394.74305957595</ele>
        <time>2017-05-08T12:48:38Z</time>
      </trkpt>
      <trkpt lat="43.93075" lon="3.64868">
        <ele>394.74305957595</ele>
        <time>2017-05-08T12:48:48Z</time>
      </trkpt>
      <trkpt lat="43.93075" lon="3.64863">
        <ele>394.74305957595</ele>
        <time>2017-05-08T12:48:53Z</time>
      </trkpt>
      <trkpt lat="43.93077" lon="3.64844">
        <ele>401.31415005318</ele>
        <time>2017-05-08T12:49:33Z</time>
      </trkpt>
      <trkpt lat="43.93077" lon="3.64831">
        <ele>407.0982600977</ele>
        <time>2017-05-08T12:49:43Z</time>
      </trkpt>
      <trkpt lat="43.93082" lon="3.64811">
        <ele>412.22826943655</ele>
        <time>2017-05-08T12:50:00Z</time>
      </trkpt>
      <trkpt lat="43.93073" lon="3.6479">
        <ele>417.34163136211</ele>
        <time>2017-05-08T12:50:57Z</time>
      </trkpt>
      <trkpt lat="43.9306" lon="3.64778">
        <ele>422.4082804651</ele>
        <time>2017-05-08T12:51:31Z</time>
      </trkpt>
      <trkpt lat="43.93068" lon="3.6477">
        <ele>427.1671613138</ele>
        <time>2017-05-08T12:51:51Z</time>
      </trkpt>
      <trkpt lat="43.93057" lon="3.64749">
        <ele>433.04278727156</ele>
        <time>2017-05-08T12:52:48Z</time>
      </trkpt>
      <trkpt lat="43.93054" lon="3.6474">
        <ele>433.04278727156</ele>
        <time>2017-05-08T12:53:08Z</time>
      </trkpt>
      <trkpt lat="43.93045" lon="3.64733">
        <ele>438.98280743422</ele>
        <time>2017-05-08T12:53:25Z</time>
      </trkpt>
      <trkpt lat="43.93041" lon="3.64725">
        <ele>438.98280743422</ele>
        <time>2017-05-08T12:53:33Z</time>
      </trkpt>
      <trkpt lat="43.93015" lon="3.64682">
        <ele>446.91349205285</ele>
        <time>2017-05-08T12:54:44Z</time>
      </trkpt>
      <trkpt lat="43.92997" lon="3.64666">
        <ele>454.98789729252</ele>
        <time>2017-05-08T12:55:15Z</time>
      </trkpt>
      <trkpt lat="43.92952" lon="3.64574">
        <ele>465.14541047131</ele>
        <time>2017-05-08T12:56:57Z</time>
      </trkpt>
      <trkpt lat="43.9295" lon="3.64528">
        <ele>474.59119656578</ele>
        <time>2017-05-08T12:57:41Z</time>
      </trkpt>
      <trkpt lat="43.92915" lon="3.64477">
        <ele>484.22326990415</ele>
        <time>2017-05-08T12:58:41Z</time>
      </trkpt>
      <trkpt lat="43.92885" lon="3.64441">
        <ele>492.71539170669</ele>
        <time>2017-05-08T12:59:22Z</time>
      </trkpt>
      <trkpt lat="43.92885" lon="3.6444">
        <ele>492.71539170669</ele>
        <time>2017-05-08T12:59:23Z</time>
      </trkpt>
      <trkpt lat="43.9288" lon="3.64426">
        <ele>500.16091735572</ele>
        <time>2017-05-08T12:59:39Z</time>
      </trkpt>
      <trkpt lat="43.92863" lon="3.64399">
        <ele>506.69209982694</ele>
        <time>2017-05-08T13:00:05Z</time>
      </trkpt>
      <trkpt lat="43.92861" lon="3.64394">
        <ele>506.69209982694</ele>
        <time>2017-05-08T13:00:05Z</time>
      </trkpt>
      <trkpt lat="43.92857" lon="3.64386">
        <ele>512.33258504623</ele>
        <time>2017-05-08T13:00:22Z</time>
      </trkpt>
      <trkpt lat="43.92845" lon="3.64373">
        <ele>517.07784552168</ele>
        <time>2017-05-08T13:00:50Z</time>
      </trkpt>
      <trkpt lat="43.92839" lon="3.64381">
        <ele>517.07784552168</ele>
        <time>2017-05-08T13:01:08Z</time>
      </trkpt>
      <trkpt lat="43.92838" lon="3.64383">
        <ele>520.92622033724</ele>
        <time>2017-05-08T13:01:31Z</time>
      </trkpt>
      <trkpt lat="43.92814" lon="3.64323">
        <ele>524.28257104776</ele>
        <time>2017-05-08T13:02:34Z</time>
      </trkpt>
      <trkpt lat="43.92809" lon="3.64317">
        <ele>524.28257104776</ele>
        <time>2017-05-08T13:05:38Z</time>
      </trkpt>
      <trkpt lat="43.928" lon="3.64306">
        <ele>528.22981898416</ele>
        <time>2017-05-08T13:05:54Z</time>
      </trkpt>
      <trkpt lat="43.92783" lon="3.64281">
        <ele>531.59217998511</ele>
        <time>2017-05-08T13:06:36Z</time>
      </trkpt>
      <trkpt lat="43.92775" lon="3.64269">
        <ele>534.39271181263</ele>
        <time>2017-05-08T13:07:00Z</time>
      </trkpt>
      <trkpt lat="43.9275" lon="3.64255">
        <ele>537.37532712468</ele>
        <time>2017-05-08T13:07:36Z</time>
      </trkpt>
      <trkpt lat="43.92748" lon="3.64252">
        <ele>537.37532712468</ele>
        <time>2017-05-08T13:07:37Z</time>
      </trkpt>
      <trkpt lat="43.92727" lon="3.64225">
        <ele>540.81073411311</ele>
        <time>2017-05-08T13:08:16Z</time>
      </trkpt>
      <trkpt lat="43.92709" lon="3.6421">
        <ele>543.98260714458</ele>
        <time>2017-05-08T13:08:53Z</time>
      </trkpt>
      <trkpt lat="43.92697" lon="3.64183">
        <ele>547.06426765081</ele>
        <time>2017-05-08T13:09:13Z</time>
      </trkpt>
      <trkpt lat="43.92697" lon="3.64182">
        <ele>547.06426765081</ele>
        <time>2017-05-08T13:09:18Z</time>
      </trkpt>
      <trkpt lat="43.9265" lon="3.64159">
        <ele>550.60590388435</ele>
        <time>2017-05-08T13:10:23Z</time>
      </trkpt>
      <trkpt lat="43.92614" lon="3.64111">
        <ele>554.6401805826</ele>
        <time>2017-05-08T13:11:15Z</time>
      </trkpt>
      <trkpt lat="43.92603" lon="3.64099">
        <ele>558.37392320929</ele>
        <time>2017-05-08T13:11:32Z</time>
      </trkpt>
      <trkpt lat="43.92597" lon="3.64093">
        <ele>558.37392320929</ele>
        <time>2017-05-08T13:11:32Z</time>
      </trkpt>
      <trkpt lat="43.92596" lon="3.64092">
        <ele>558.37392320929</ele>
        <time>2017-05-08T13:11:33Z</time>
      </trkpt>
      <trkpt lat="43.92502" lon="3.64044">
        <ele>563.17846319741</ele>
        <time>2017-05-08T13:13:12Z</time>
      </trkpt>
      <trkpt lat="43.92502" lon="3.64044">
        <ele>563.17846319741</ele>
        <time>2017-05-08T13:13:13Z</time>
      </trkpt>
      <trkpt lat="43.92496" lon="3.64043">
        <ele>563.17846319741</ele>
        <time>2017-05-08T13:13:19Z</time>
      </trkpt>
      <trkpt lat="43.92417" lon="3.6398">
        <ele>568.87918457529</ele>
        <time>2017-05-08T13:15:05Z</time>
      </trkpt>
      <trkpt lat="43.92392" lon="3.63972">
        <ele>574.64814814553</ele>
        <time>2017-05-08T13:16:02Z</time>
      </trkpt>
      <trkpt lat="43.92348" lon="3.63953">
        <ele>580.92943947815</ele>
        <time>2017-05-08T13:17:13Z</time>
      </trkpt>
      <trkpt lat="43.92325" lon="3.63951">
        <ele>586.77710894154</ele>
        <time>2017-05-08T13:17:52Z</time>
      </trkpt>
      <trkpt lat="43.92303" lon="3.63958">
        <ele>593.14768512956</ele>
        <time>2017-05-08T13:19:05Z</time>
      </trkpt>
      <trkpt lat="43.92275" lon="3.6396">
        <ele>598.93526317043</ele>
        <time>2017-05-08T13:19:28Z</time>
      </trkpt>
      <trkpt lat="43.92272" lon="3.63966">
        <ele>598.93526317043</ele>
        <time>2017-05-08T13:20:08Z</time>
      </trkpt>
      <trkpt lat="43.92269" lon="3.63967">
        <ele>598.93526317043</ele>
        <time>2017-05-08T13:20:13Z</time>
      </trkpt>
      <trkpt lat="43.92259" lon="3.63972">
        <ele>604.7900099507</ele>
        <time>2017-05-08T13:20:18Z</time>
      </trkpt>
      <trkpt lat="43.92258" lon="3.6398">
        <ele>604.7900099507</ele>
        <time>2017-05-08T13:20:23Z</time>
      </trkpt>
      <trkpt lat="43.92256" lon="3.63983">
        <ele>604.7900099507</ele>
        <time>2017-05-08T13:20:28Z</time>
      </trkpt>
      <trkpt lat="43.92255" lon="3.63986">
        <ele>609.92927976922</ele>
        <time>2017-05-08T13:20:33Z</time>
      </trkpt>
      <trkpt lat="43.92248" lon="3.63995">
        <ele>614.32228643463</ele>
        <time>2017-05-08T13:20:54Z</time>
      </trkpt>
      <trkpt lat="43.92247" lon="3.63996">
        <ele>614.32228643463</ele>
        <time>2017-05-08T13:20:54Z</time>
      </trkpt>
      <trkpt lat="43.92239" lon="3.64015">
        <ele>618.13003485813</ele>
        <time>2017-05-08T13:21:08Z</time>
      </trkpt>
      <trkpt lat="43.92235" lon="3.6402">
        <ele>618.13003485813</ele>
        <time>2017-05-08T13:21:13Z</time>
      </trkpt>
      <trkpt lat="43.92226" lon="3.64031">
        <ele>621.3445764653</ele>
        <time>2017-05-08T13:21:32Z</time>
      </trkpt>
      <trkpt lat="43.92201" lon="3.64039">
        <ele>624.10432855658</ele>
        <time>2017-05-08T13:22:11Z</time>
      </trkpt>
      <trkpt lat="43.92167" lon="3.64037">
        <ele>626.52423892041</ele>
        <time>2017-05-08T13:22:37Z</time>
      </trkpt>
      <trkpt lat="43.9216" lon="3.64039">
        <ele>626.52423892041</ele>
        <time>2017-05-08T13:22:45Z</time>
      </trkpt>
      <trkpt lat="43.92142" lon="3.64043">
        <ele>628.89906395859</ele>
        <time>2017-05-08T13:23:15Z</time>
      </trkpt>
      <trkpt lat="43.92141" lon="3.64043">
        <ele>628.89906395859</ele>
        <time>2017-05-08T13:23:24Z</time>
      </trkpt>
      <trkpt lat="43.92129" lon="3.64046">
        <ele>630.86730515071</ele>
        <time>2017-05-08T13:23:34Z</time>
      </trkpt>
      <trkpt lat="43.9211" lon="3.64033">
        <ele>632.28250293679</ele>
        <time>2017-05-08T13:24:15Z</time>
      </trkpt>
      <trkpt lat="43.92107" lon="3.64032">
        <ele>632.28250293679</ele>
        <time>2017-05-08T13:24:15Z</time>
      </trkpt>
      <trkpt lat="43.921" lon="3.64028">
        <ele>633.31312439039</ele>
        <time>2017-05-08T13:24:31Z</time>
      </trkpt>
      <trkpt lat="43.92041" lon="3.6402">
        <ele>634.04398030305</ele>
        <time>2017-05-08T13:25:13Z</time>
      </trkpt>
      <trkpt lat="43.9203" lon="3.64015">
        <ele>634.48213268984</ele>
        <time>2017-05-08T13:25:33Z</time>
      </trkpt>
      <trkpt lat="43.9202" lon="3.64011">
        <ele>634.64908392584</ele>
        <time>2017-05-08T13:25:33Z</time>
      </trkpt>
      <trkpt lat="43.91941" lon="3.63953">
        <ele>635.6464152115</ele>
        <time>2017-05-08T13:27:00Z</time>
      </trkpt>
      <trkpt lat="43.91917" lon="3.63943">
        <ele>636.53146168299</ele>
        <time>2017-05-08T13:27:23Z</time>
      </trkpt>
      <trkpt lat="43.9191" lon="3.6394">
        <ele>636.53146168299</ele>
        <time>2017-05-08T13:27:33Z</time>
      </trkpt>
      <trkpt lat="43.91904" lon="3.63936">
        <ele>637.1084496696</ele>
        <time>2017-05-08T13:27:38Z</time>
      </trkpt>
      <trkpt lat="43.91899" lon="3.63935">
        <ele>637.1084496696</ele>
        <time>2017-05-08T13:27:43Z</time>
      </trkpt>
      <trkpt lat="43.91894" lon="3.63932">
        <ele>637.32626485303</ele>
        <time>2017-05-08T13:27:48Z</time>
      </trkpt>
      <trkpt lat="43.9189" lon="3.63927">
        <ele>637.32626485303</ele>
        <time>2017-05-08T13:27:53Z</time>
      </trkpt>
      <trkpt lat="43.91885" lon="3.63923">
        <ele>637.25351377075</ele>
        <time>2017-05-08T13:27:58Z</time>
      </trkpt>
      <trkpt lat="43.9188" lon="3.63919">
        <ele>637.25351377075</ele>
        <time>2017-05-08T13:28:03Z</time>
      </trkpt>
      <trkpt lat="43.91876" lon="3.63915">
        <ele>636.83889164338</ele>
        <time>2017-05-08T13:28:08Z</time>
      </trkpt>
      <trkpt lat="43.91871" lon="3.6391">
        <ele>636.83889164338</ele>
        <time>2017-05-08T13:28:13Z</time>
      </trkpt>
      <trkpt lat="43.91866" lon="3.63906">
        <ele>636.16515890273</ele>
        <time>2017-05-08T13:28:18Z</time>
      </trkpt>
      <trkpt lat="43.91862" lon="3.63901">
        <ele>636.16515890273</ele>
        <time>2017-05-08T13:28:23Z</time>
      </trkpt>
      <trkpt lat="43.91859" lon="3.63897">
        <ele>635.26607929755</ele>
        <time>2017-05-08T13:28:28Z</time>
      </trkpt>
      <trkpt lat="43.91855" lon="3.63891">
        <ele>635.26607929755</ele>
        <time>2017-05-08T13:28:33Z</time>
      </trkpt>
      <trkpt lat="43.91851" lon="3.63886">
        <ele>633.97138198861</ele>
        <time>2017-05-08T13:28:38Z</time>
      </trkpt>
      <trkpt lat="43.91847" lon="3.63881">
        <ele>633.97138198861</ele>
        <time>2017-05-08T13:28:43Z</time>
      </trkpt>
      <trkpt lat="43.91836" lon="3.63866">
        <ele>632.28253199297</ele>
        <time>2017-05-08T13:29:07Z</time>
      </trkpt>
      <trkpt lat="43.91828" lon="3.63863">
        <ele>632.28253199297</ele>
        <time>2017-05-08T13:29:08Z</time>
      </trkpt>
      <trkpt lat="43.9182" lon="3.63861">
        <ele>630.34566837131</ele>
        <time>2017-05-08T13:29:25Z</time>
      </trkpt>
      <trkpt lat="43.91801" lon="3.63852">
        <ele>628.20995719136</ele>
        <time>2017-05-08T13:29:42Z</time>
      </trkpt>
      <trkpt lat="43.91798" lon="3.63849">
        <ele>628.20995719136</ele>
        <time>2017-05-08T13:29:42Z</time>
      </trkpt>
      <trkpt lat="43.91696" lon="3.63876">
        <ele>625.66163082976</ele>
        <time>2017-05-08T13:31:55Z</time>
      </trkpt>
      <trkpt lat="43.91695" lon="3.6388">
        <ele>625.66163082976</ele>
        <time>2017-05-08T13:32:25Z</time>
      </trkpt>
      <trkpt lat="43.91679" lon="3.639">
        <ele>622.99329229474</ele>
        <time>2017-05-08T13:32:42Z</time>
      </trkpt>
      <trkpt lat="43.91659" lon="3.63919">
        <ele>620.41823517118</ele>
        <time>2017-05-08T13:33:00Z</time>
      </trkpt>
      <trkpt lat="43.91655" lon="3.63923">
        <ele>620.41823517118</ele>
        <time>2017-05-08T13:33:00Z</time>
      </trkpt>
      <trkpt lat="43.91648" lon="3.63928">
        <ele>617.94596259083</ele>
        <time>2017-05-08T13:33:07Z</time>
      </trkpt>
      <trkpt lat="43.91648" lon="3.63928">
        <ele>617.94596259083</ele>
        <time>2017-05-08T13:33:08Z</time>
      </trkpt>
      <trkpt lat="43.91591" lon="3.63951">
        <ele>615.5556490428</ele>
        <time>2017-05-08T13:34:07Z</time>
      </trkpt>
      <trkpt lat="43.91526" lon="3.64024">
        <ele>612.98224980153</ele>
        <time>2017-05-08T13:35:25Z</time>
      </trkpt>
      <trkpt lat="43.91521" lon="3.64031">
        <ele>612.98224980153</ele>
        <time>2017-05-08T13:35:25Z</time>
      </trkpt>
      <trkpt lat="43.91519" lon="3.64039">
        <ele>610.44133048148</ele>
        <time>2017-05-08T13:35:33Z</time>
      </trkpt>
      <trkpt lat="43.91519" lon="3.64035">
        <ele>610.44133048148</ele>
        <time>2017-05-08T13:36:08Z</time>
      </trkpt>
      <trkpt lat="43.91499" lon="3.6412">
        <ele>608.52109723875</ele>
        <time>2017-05-08T13:37:08Z</time>
      </trkpt>
      <trkpt lat="43.91498" lon="3.64128">
        <ele>608.52109723875</ele>
        <time>2017-05-08T13:37:14Z</time>
      </trkpt>
      <trkpt lat="43.91498" lon="3.64144">
        <ele>606.76989311278</ele>
        <time>2017-05-08T13:37:23Z</time>
      </trkpt>
      <trkpt lat="43.9148" lon="3.64189">
        <ele>605.07086860738</ele>
        <time>2017-05-08T13:38:00Z</time>
      </trkpt>
      <trkpt lat="43.91462" lon="3.64212">
        <ele>603.51684300568</ele>
        <time>2017-05-08T13:38:15Z</time>
      </trkpt>
      <trkpt lat="43.9146" lon="3.64217">
        <ele>603.51684300568</ele>
        <time>2017-05-08T13:38:15Z</time>
      </trkpt>
      <trkpt lat="43.91458" lon="3.64223">
        <ele>602.27936211837</ele>
        <time>2017-05-08T13:38:23Z</time>
      </trkpt>
      <trkpt lat="43.91453" lon="3.64226">
        <ele>602.27936211837</ele>
        <time>2017-05-08T13:38:28Z</time>
      </trkpt>
      <trkpt lat="43.91449" lon="3.64228">
        <ele>601.41509885647</ele>
        <time>2017-05-08T13:38:33Z</time>
      </trkpt>
      <trkpt lat="43.91444" lon="3.64232">
        <ele>601.41509885647</ele>
        <time>2017-05-08T13:38:41Z</time>
      </trkpt>
      <trkpt lat="43.91392" lon="3.64266">
        <ele>601.13355249478</ele>
        <time>2017-05-08T13:40:10Z</time>
      </trkpt>
      <trkpt lat="43.91387" lon="3.64265">
        <ele>601.13355249478</ele>
        <time>2017-05-08T13:40:17Z</time>
      </trkpt>
      <trkpt lat="43.91379" lon="3.64257">
        <ele>601.49702598849</ele>
        <time>2017-05-08T13:40:44Z</time>
      </trkpt>
      <trkpt lat="43.91374" lon="3.64256">
        <ele>601.49702598849</ele>
        <time>2017-05-08T13:40:44Z</time>
      </trkpt>
      <trkpt lat="43.9137" lon="3.64251">
        <ele>602.34481779827</ele>
        <time>2017-05-08T13:40:55Z</time>
      </trkpt>
      <trkpt lat="43.91369" lon="3.64245">
        <ele>602.34481779827</ele>
        <time>2017-05-08T13:41:01Z</time>
      </trkpt>
      <trkpt lat="43.9136" lon="3.64231">
        <ele>603.74242487252</ele>
        <time>2017-05-08T13:41:46Z</time>
      </trkpt>
      <trkpt lat="43.91356" lon="3.64214">
        <ele>605.17214305738</ele>
        <time>2017-05-08T13:41:46Z</time>
      </trkpt>
      <trkpt lat="43.91358" lon="3.64215">
        <ele>605.17214305738</ele>
        <time>2017-05-08T13:42:06Z</time>
      </trkpt>
      <trkpt lat="43.91366" lon="3.6421">
        <ele>606.86001505218</ele>
        <time>2017-05-08T13:42:42Z</time>
      </trkpt>
      <trkpt lat="43.91355" lon="3.64203">
        <ele>608.51003088596</ele>
        <time>2017-05-08T13:42:42Z</time>
      </trkpt>
      <trkpt lat="43.91354" lon="3.64201">
        <ele>608.51003088596</ele>
        <time>2017-05-08T13:42:43Z</time>
      </trkpt>
      <trkpt lat="43.91352" lon="3.64202">
        <ele>608.51003088596</ele>
        <time>2017-05-08T13:43:05Z</time>
      </trkpt>
      <trkpt lat="43.9135" lon="3.64203">
        <ele>608.51003088596</ele>
        <time>2017-05-08T13:43:06Z</time>
      </trkpt>
      <trkpt lat="43.91371" lon="3.6422">
        <ele>610.79890274897</ele>
        <time>2017-05-08T13:45:00Z</time>
      </trkpt>
      <trkpt lat="43.91379" lon="3.64215">
        <ele>613.22748978798</ele>
        <time>2017-05-08T13:45:16Z</time>
      </trkpt>
      <trkpt lat="43.91383" lon="3.64196">
        <ele>615.7506412725</ele>
        <time>2017-05-08T13:45:44Z</time>
      </trkpt>
      <trkpt lat="43.91369" lon="3.64234">
        <ele>618.12431292572</ele>
        <time>2017-05-08T13:46:25Z</time>
      </trkpt>
      <trkpt lat="43.91365" lon="3.64251">
        <ele>619.93530668997</ele>
        <time>2017-05-08T13:49:43Z</time>
      </trkpt>
      <trkpt lat="43.91366" lon="3.64253">
        <ele>619.93530668997</ele>
        <time>2017-05-08T13:49:43Z</time>
      </trkpt>
      <trkpt lat="43.91372" lon="3.64262">
        <ele>621.07605121169</ele>
        <time>2017-05-08T13:50:00Z</time>
      </trkpt>
      <trkpt lat="43.91385" lon="3.64266">
        <ele>621.86658836065</ele>
        <time>2017-05-08T13:50:23Z</time>
      </trkpt>
      <trkpt lat="43.91387" lon="3.64266">
        <ele>621.86658836065</ele>
        <time>2017-05-08T13:50:23Z</time>
      </trkpt>
      <trkpt lat="43.91447" lon="3.64235">
        <ele>620.74527411466</ele>
        <time>2017-05-08T13:52:09Z</time>
      </trkpt>
      <trkpt lat="43.91458" lon="3.64235">
        <ele>619.64274144314</ele>
        <time>2017-05-08T13:52:18Z</time>
      </trkpt>
      <trkpt lat="43.91473" lon="3.64225">
        <ele>618.50300798546</ele>
        <time>2017-05-08T13:52:35Z</time>
      </trkpt>
      <trkpt lat="43.91479" lon="3.64212">
        <ele>617.25982206984</ele>
        <time>2017-05-08T13:52:50Z</time>
      </trkpt>
      <trkpt lat="43.91482" lon="3.64197">
        <ele>615.86642162077</ele>
        <time>2017-05-08T13:52:50Z</time>
      </trkpt>
      <trkpt lat="43.91489" lon="3.64185">
        <ele>614.40951982012</ele>
        <time>2017-05-08T13:53:00Z</time>
      </trkpt>
      <trkpt lat="43.9149" lon="3.64182">
        <ele>614.40951982012</ele>
        <time>2017-05-08T13:53:00Z</time>
      </trkpt>
      <trkpt lat="43.91496" lon="3.64157">
        <ele>612.79661455746</ele>
        <time>2017-05-08T13:53:18Z</time>
      </trkpt>
      <trkpt lat="43.91496" lon="3.64147">
        <ele>612.79661455746</ele>
        <time>2017-05-08T13:53:23Z</time>
      </trkpt>
      <trkpt lat="43.91501" lon="3.64128">
        <ele>611.23057004344</ele>
        <time>2017-05-08T13:53:33Z</time>
      </trkpt>
      <trkpt lat="43.91506" lon="3.64074">
        <ele>609.81265181444</ele>
        <time>2017-05-08T13:54:17Z</time>
      </trkpt>
      <trkpt lat="43.91528" lon="3.64019">
        <ele>608.31912324911</ele>
        <time>2017-05-08T13:54:45Z</time>
      </trkpt>
      <trkpt lat="43.91534" lon="3.64007">
        <ele>606.80219474388</ele>
        <time>2017-05-08T13:55:00Z</time>
      </trkpt>
      <trkpt lat="43.9155" lon="3.63975">
        <ele>605.00756517188</ele>
        <time>2017-05-08T13:55:18Z</time>
      </trkpt>
      <trkpt lat="43.91571" lon="3.63953">
        <ele>603.4929005539</ele>
        <time>2017-05-08T13:55:41Z</time>
      </trkpt>
      <trkpt lat="43.9158" lon="3.6395">
        <ele>602.12550045292</ele>
        <time>2017-05-08T13:55:48Z</time>
      </trkpt>
      <trkpt lat="43.91594" lon="3.63948">
        <ele>600.78188808057</ele>
        <time>2017-05-08T13:56:05Z</time>
      </trkpt>
      <trkpt lat="43.91601" lon="3.63945">
        <ele>600.78188808057</ele>
        <time>2017-05-08T13:56:05Z</time>
      </trkpt>
      <trkpt lat="43.9168" lon="3.63893">
        <ele>600.22656055392</ele>
        <time>2017-05-08T13:57:18Z</time>
      </trkpt>
      <trkpt lat="43.91714" lon="3.63859">
        <ele>600.5890908064</ele>
        <time>2017-05-08T13:59:25Z</time>
      </trkpt>
      <trkpt lat="43.9172" lon="3.63858">
        <ele>600.5890908064</ele>
        <time>2017-05-08T13:59:25Z</time>
      </trkpt>
      <trkpt lat="43.91788" lon="3.63845">
        <ele>602.66418710529</ele>
        <time>2017-05-08T14:00:42Z</time>
      </trkpt>
      <trkpt lat="43.91787" lon="3.63844">
        <ele>602.66418710529</ele>
        <time>2017-05-08T14:00:43Z</time>
      </trkpt>
      <trkpt lat="43.91787" lon="3.63844">
        <ele>602.66418710529</ele>
        <time>2017-05-08T14:00:48Z</time>
      </trkpt>
      <trkpt lat="43.91784" lon="3.63839">
        <ele>602.66418710529</ele>
        <time>2017-05-08T14:01:08Z</time>
      </trkpt>
      <trkpt lat="43.91783" lon="3.63836">
        <ele>602.66418710529</ele>
        <time>2017-05-08T14:01:13Z</time>
      </trkpt>
      <trkpt lat="43.91782" lon="3.63834">
        <ele>604.66134597533</ele>
        <time>2017-05-08T14:01:23Z</time>
      </trkpt>
      <trkpt lat="43.91779" lon="3.63829">
        <ele>604.66134597533</ele>
        <time>2017-05-08T14:01:28Z</time>
      </trkpt>
      <trkpt lat="43.91777" lon="3.63817">
        <ele>606.67991444432</ele>
        <time>2017-05-08T14:01:38Z</time>
      </trkpt>
      <trkpt lat="43.91776" lon="3.6381">
        <ele>606.67991444432</ele>
        <time>2017-05-08T14:01:43Z</time>
      </trkpt>
      <trkpt lat="43.91773" lon="3.63803">
        <ele>608.63891415394</ele>
        <time>2017-05-08T14:01:48Z</time>
      </trkpt>
      <trkpt lat="43.9177" lon="3.63791">
        <ele>610.52111785457</ele>
        <time>2017-05-08T14:01:53Z</time>
      </trkpt>
      <trkpt lat="43.9177" lon="3.63782">
        <ele>610.52111785457</ele>
        <time>2017-05-08T14:01:58Z</time>
      </trkpt>
      <trkpt lat="43.9177" lon="3.63774">
        <ele>612.31079228979</ele>
        <time>2017-05-08T14:02:03Z</time>
      </trkpt>
      <trkpt lat="43.9177" lon="3.63769">
        <ele>612.31079228979</ele>
        <time>2017-05-08T14:02:08Z</time>
      </trkpt>
      <trkpt lat="43.91769" lon="3.63763">
        <ele>612.31079228979</ele>
        <time>2017-05-08T14:02:13Z</time>
      </trkpt>
      <trkpt lat="43.91769" lon="3.63757">
        <ele>613.95041908914</ele>
        <time>2017-05-08T14:02:18Z</time>
      </trkpt>
      <trkpt lat="43.9177" lon="3.6375">
        <ele>613.95041908914</ele>
        <time>2017-05-08T14:02:23Z</time>
      </trkpt>
      <trkpt lat="43.91769" lon="3.63741">
        <ele>615.50246545371</ele>
        <time>2017-05-08T14:02:28Z</time>
      </trkpt>
      <trkpt lat="43.91769" lon="3.63733">
        <ele>615.50246545371</ele>
        <time>2017-05-08T14:02:33Z</time>
      </trkpt>
      <trkpt lat="43.91771" lon="3.63728">
        <ele>616.90983192292</ele>
        <time>2017-05-08T14:02:38Z</time>
      </trkpt>
      <trkpt lat="43.91773" lon="3.63722">
        <ele>616.90983192292</ele>
        <time>2017-05-08T14:02:43Z</time>
      </trkpt>
      <trkpt lat="43.91777" lon="3.63717">
        <ele>618.076863942</ele>
        <time>2017-05-08T14:02:48Z</time>
      </trkpt>
      <trkpt lat="43.91772" lon="3.63678">
        <ele>618.80040633672</ele>
        <time>2017-05-08T14:03:14Z</time>
      </trkpt>
      <trkpt lat="43.91772" lon="3.63667">
        <ele>618.80040633672</ele>
        <time>2017-05-08T14:03:34Z</time>
      </trkpt>
      <trkpt lat="43.91769" lon="3.6366">
        <ele>619.57088890713</ele>
        <time>2017-05-08T14:03:51Z</time>
      </trkpt>
      <trkpt lat="43.91783" lon="3.63635">
        <ele>620.39593773124</ele>
        <time>2017-05-08T14:04:58Z</time>
      </trkpt>
      <trkpt lat="43.91789" lon="3.63626">
        <ele>620.39593773124</ele>
        <time>2017-05-08T14:05:23Z</time>
      </trkpt>
      <trkpt lat="43.91791" lon="3.63623">
        <ele>621.4699131467</ele>
        <time>2017-05-08T14:05:32Z</time>
      </trkpt>
      <trkpt lat="43.91798" lon="3.63613">
        <ele>622.64084981493</ele>
        <time>2017-05-08T14:05:49Z</time>
      </trkpt>
      <trkpt lat="43.91811" lon="3.63567">
        <ele>625.10801980031</ele>
        <time>2017-05-08T14:06:51Z</time>
      </trkpt>
      <trkpt lat="43.91828" lon="3.6351">
        <ele>627.81741190817</ele>
        <time>2017-05-08T14:08:00Z</time>
      </trkpt>
      <trkpt lat="43.91848" lon="3.63443">
        <ele>631.13212776426</ele>
        <time>2017-05-08T14:08:51Z</time>
      </trkpt>
      <trkpt lat="43.91869" lon="3.63381">
        <ele>635.96349026321</ele>
        <time>2017-05-08T14:09:43Z</time>
      </trkpt>
      <trkpt lat="43.91884" lon="3.63265">
        <ele>643.94440799318</ele>
        <time>2017-05-08T14:11:45Z</time>
      </trkpt>
      <trkpt lat="43.91883" lon="3.63244">
        <ele>651.39120131821</ele>
        <time>2017-05-08T14:13:29Z</time>
      </trkpt>
      <trkpt lat="43.91892" lon="3.63246">
        <ele>651.39120131821</ele>
        <time>2017-05-08T14:13:41Z</time>
      </trkpt>
      <trkpt lat="43.91892" lon="3.63246">
        <ele>658.17826871973</ele>
        <time>2017-05-08T14:13:43Z</time>
      </trkpt>
      <trkpt lat="43.91865" lon="3.62992">
        <ele>663.26905283571</ele>
        <time>2017-05-08T14:17:41Z</time>
      </trkpt>
      <trkpt lat="43.91867" lon="3.62982">
        <ele>663.26905283571</ele>
        <time>2017-05-08T14:18:22Z</time>
      </trkpt>
      <trkpt lat="43.91833" lon="3.62979">
        <ele>668.07163568771</ele>
        <time>2017-05-08T14:19:05Z</time>
      </trkpt>
      <trkpt lat="43.9183" lon="3.62975">
        <ele>668.07163568771</ele>
        <time>2017-05-08T14:19:05Z</time>
      </trkpt>
      <trkpt lat="43.91806" lon="3.6292">
        <ele>673.41623863675</ele>
        <time>2017-05-08T14:20:51Z</time>
      </trkpt>
      <trkpt lat="43.918" lon="3.62916">
        <ele>673.41623863675</ele>
        <time>2017-05-08T14:20:51Z</time>
      </trkpt>
      <trkpt lat="43.91777" lon="3.62897">
        <ele>678.61540271206</ele>
        <time>2017-05-08T14:21:43Z</time>
      </trkpt>
      <trkpt lat="43.91772" lon="3.62894">
        <ele>678.61540271206</ele>
        <time>2017-05-08T14:21:58Z</time>
      </trkpt>
      <trkpt lat="43.91776" lon="3.62891">
        <ele>683.4076298083</ele>
        <time>2017-05-08T14:22:03Z</time>
      </trkpt>
      <trkpt lat="43.91733" lon="3.62845">
        <ele>688.21505740767</ele>
        <time>2017-05-08T14:23:15Z</time>
      </trkpt>
      <trkpt lat="43.91737" lon="3.62815">
        <ele>693.12651687213</ele>
        <time>2017-05-08T14:23:34Z</time>
      </trkpt>
      <trkpt lat="43.9173" lon="3.62784">
        <ele>698.72879784747</ele>
        <time>2017-05-08T14:24:04Z</time>
      </trkpt>
      <trkpt lat="43.91727" lon="3.62781">
        <ele>698.72879784747</ele>
        <time>2017-05-08T14:24:08Z</time>
      </trkpt>
      <trkpt lat="43.91727" lon="3.62778">
        <ele>698.72879784747</ele>
        <time>2017-05-08T14:24:13Z</time>
      </trkpt>
      <trkpt lat="43.9172" lon="3.62771">
        <ele>703.77705773685</ele>
        <time>2017-05-08T14:24:33Z</time>
      </trkpt>
      <trkpt lat="43.91711" lon="3.6275">
        <ele>708.25832545696</ele>
        <time>2017-05-08T14:24:54Z</time>
      </trkpt>
      <trkpt lat="43.91712" lon="3.62729">
        <ele>712.58048939669</ele>
        <time>2017-05-08T14:25:31Z</time>
      </trkpt>
      <trkpt lat="43.91706" lon="3.62698">
        <ele>716.5026332213</ele>
        <time>2017-05-08T14:26:00Z</time>
      </trkpt>
      <trkpt lat="43.91706" lon="3.62698">
        <ele>716.5026332213</ele>
        <time>2017-05-08T14:26:00Z</time>
      </trkpt>
      <trkpt lat="43.91703" lon="3.6269">
        <ele>716.5026332213</ele>
        <time>2017-05-08T14:26:16Z</time>
      </trkpt>
      <trkpt lat="43.91703" lon="3.62677">
        <ele>720.23537755613</ele>
        <time>2017-05-08T14:26:16Z</time>
      </trkpt>
      <trkpt lat="43.91704" lon="3.6267">
        <ele>720.23537755613</ele>
        <time>2017-05-08T14:26:30Z</time>
      </trkpt>
      <trkpt lat="43.91698" lon="3.62657">
        <ele>723.68655306684</ele>
        <time>2017-05-08T14:26:47Z</time>
      </trkpt>
      <trkpt lat="43.91685" lon="3.62617">
        <ele>727.65099112755</ele>
        <time>2017-05-08T14:27:35Z</time>
      </trkpt>
      <trkpt lat="43.91682" lon="3.6258">
        <ele>731.46616557379</ele>
        <time>2017-05-08T14:28:16Z</time>
      </trkpt>
      <trkpt lat="43.91684" lon="3.62551">
        <ele>734.98012925618</ele>
        <time>2017-05-08T14:28:50Z</time>
      </trkpt>
      <trkpt lat="43.91682" lon="3.62545">
        <ele>734.98012925618</ele>
        <time>2017-05-08T14:29:00Z</time>
      </trkpt>
      <trkpt lat="43.91688" lon="3.6251">
        <ele>738.01002992453</ele>
        <time>2017-05-08T14:29:42Z</time>
      </trkpt>
      <trkpt lat="43.91693" lon="3.62484">
        <ele>740.48898866149</ele>
        <time>2017-05-08T14:30:03Z</time>
      </trkpt>
      <trkpt lat="43.91695" lon="3.62466">
        <ele>742.47216017734</ele>
        <time>2017-05-08T14:30:25Z</time>
      </trkpt>
      <trkpt lat="43.91709" lon="3.62409">
        <ele>744.08435787992</ele>
        <time>2017-05-08T14:31:08Z</time>
      </trkpt>
      <trkpt lat="43.9171" lon="3.62399">
        <ele>744.08435787992</ele>
        <time>2017-05-08T14:31:08Z</time>
      </trkpt>
      <trkpt lat="43.91726" lon="3.62327">
        <ele>745.3272167801</ele>
        <time>2017-05-08T14:32:03Z</time>
      </trkpt>
      <trkpt lat="43.91726" lon="3.62324">
        <ele>745.3272167801</ele>
        <time>2017-05-08T14:32:06Z</time>
      </trkpt>
      <trkpt lat="43.91729" lon="3.62264">
        <ele>746.31878786378</ele>
        <time>2017-05-08T14:32:48Z</time>
      </trkpt>
      <trkpt lat="43.91728" lon="3.62255">
        <ele>746.31878786378</ele>
        <time>2017-05-08T14:32:48Z</time>
      </trkpt>
      <trkpt lat="43.91725" lon="3.62203">
        <ele>747.21257070927</ele>
        <time>2017-05-08T14:33:29Z</time>
      </trkpt>
      <trkpt lat="43.91728" lon="3.62151">
        <ele>747.66123771037</ele>
        <time>2017-05-08T14:34:02Z</time>
      </trkpt>
      <trkpt lat="43.91728" lon="3.62149">
        <ele>747.66123771037</ele>
        <time>2017-05-08T14:34:03Z</time>
      </trkpt>
      <trkpt lat="43.91729" lon="3.62138">
        <ele>747.66123771037</ele>
        <time>2017-05-08T14:34:19Z</time>
      </trkpt>
      <trkpt lat="43.91728" lon="3.62124">
        <ele>747.73344664791</ele>
        <time>2017-05-08T14:34:19Z</time>
      </trkpt>
      <trkpt lat="43.9173" lon="3.62114">
        <ele>747.73344664791</ele>
        <time>2017-05-08T14:34:28Z</time>
      </trkpt>
      <trkpt lat="43.91745" lon="3.62049">
        <ele>747.29220288511</ele>
        <time>2017-05-08T14:35:28Z</time>
      </trkpt>
      <trkpt lat="43.91771" lon="3.61981">
        <ele>746.32736275343</ele>
        <time>2017-05-08T14:36:24Z</time>
      </trkpt>
      <trkpt lat="43.91777" lon="3.61966">
        <ele>745.13365431281</ele>
        <time>2017-05-08T14:36:35Z</time>
      </trkpt>
      <trkpt lat="43.91787" lon="3.61898">
        <ele>743.69656440746</ele>
        <time>2017-05-08T14:37:30Z</time>
      </trkpt>
      <trkpt lat="43.91799" lon="3.61844">
        <ele>742.21945056798</ele>
        <time>2017-05-08T14:38:02Z</time>
      </trkpt>
      <trkpt lat="43.91799" lon="3.61844">
        <ele>742.21945056798</ele>
        <time>2017-05-08T14:38:03Z</time>
      </trkpt>
      <trkpt lat="43.91806" lon="3.61832">
        <ele>740.64577644033</ele>
        <time>2017-05-08T14:38:16Z</time>
      </trkpt>
      <trkpt lat="43.91807" lon="3.61831">
        <ele>740.64577644033</ele>
        <time>2017-05-08T14:38:24Z</time>
      </trkpt>
      <trkpt lat="43.91812" lon="3.61823">
        <ele>739.02419685889</ele>
        <time>2017-05-08T14:38:25Z</time>
      </trkpt>
      <trkpt lat="43.91835" lon="3.61751">
        <ele>737.60154235017</ele>
        <time>2017-05-08T14:39:19Z</time>
      </trkpt>
      <trkpt lat="43.91842" lon="3.617">
        <ele>736.36079758687</ele>
        <time>2017-05-08T14:40:00Z</time>
      </trkpt>
      <trkpt lat="43.91842" lon="3.61696">
        <ele>736.36079758687</ele>
        <time>2017-05-08T14:40:04Z</time>
      </trkpt>
      <trkpt lat="43.91847" lon="3.61639">
        <ele>735.48725267764</ele>
        <time>2017-05-08T14:40:38Z</time>
      </trkpt>
      <trkpt lat="43.91848" lon="3.61627">
        <ele>735.48725267764</ele>
        <time>2017-05-08T14:40:46Z</time>
      </trkpt>
      <trkpt lat="43.91852" lon="3.61577">
        <ele>735.35310392528</ele>
        <time>2017-05-08T14:41:46Z</time>
      </trkpt>
      <trkpt lat="43.91848" lon="3.61575">
        <ele>735.35310392528</ele>
        <time>2017-05-08T14:41:58Z</time>
      </trkpt>
      <trkpt lat="43.91847" lon="3.61575">
        <ele>735.35310392528</ele>
        <time>2017-05-08T14:42:03Z</time>
      </trkpt>
      <trkpt lat="43.91805" lon="3.61581">
        <ele>735.68123302263</ele>
        <time>2017-05-08T14:43:50Z</time>
      </trkpt>
      <trkpt lat="43.91803" lon="3.61583">
        <ele>735.68123302263</ele>
        <time>2017-05-08T14:43:53Z</time>
      </trkpt>
      <trkpt lat="43.91776" lon="3.6162">
        <ele>735.57926262616</ele>
        <time>2017-05-08T14:44:31Z</time>
      </trkpt>
      <trkpt lat="43.91775" lon="3.61622">
        <ele>735.57926262616</ele>
        <time>2017-05-08T14:44:31Z</time>
      </trkpt>
      <trkpt lat="43.91774" lon="3.61624">
        <ele>735.57926262616</ele>
        <time>2017-05-08T14:44:33Z</time>
      </trkpt>
      <trkpt lat="43.91771" lon="3.61634">
        <ele>735.24452908462</ele>
        <time>2017-05-08T14:44:43Z</time>
      </trkpt>
      <trkpt lat="43.91739" lon="3.61683">
        <ele>734.12531773156</ele>
        <time>2017-05-08T14:46:24Z</time>
      </trkpt>
      <trkpt lat="43.91724" lon="3.61693">
        <ele>732.83646344943</ele>
        <time>2017-05-08T14:46:38Z</time>
      </trkpt>
      <trkpt lat="43.9172" lon="3.61695">
        <ele>732.83646344943</ele>
        <time>2017-05-08T14:46:43Z</time>
      </trkpt>
      <trkpt lat="43.91658" lon="3.61737">
        <ele>730.78055516239</ele>
        <time>2017-05-08T14:48:19Z</time>
      </trkpt>
      <trkpt lat="43.91652" lon="3.61745">
        <ele>730.78055516239</ele>
        <time>2017-05-08T14:48:19Z</time>
      </trkpt>
      <trkpt lat="43.91619" lon="3.61775">
        <ele>728.65971926608</ele>
        <time>2017-05-08T14:49:00Z</time>
      </trkpt>
      <trkpt lat="43.91602" lon="3.6183">
        <ele>726.23091733019</ele>
        <time>2017-05-08T14:49:32Z</time>
      </trkpt>
      <trkpt lat="43.91608" lon="3.6189">
        <ele>723.80274629508</ele>
        <time>2017-05-08T14:50:48Z</time>
      </trkpt>
      <trkpt lat="43.91608" lon="3.61908">
        <ele>721.68964809732</ele>
        <time>2017-05-08T14:51:03Z</time>
      </trkpt>
      <trkpt lat="43.91626" lon="3.61935">
        <ele>719.72060932669</ele>
        <time>2017-05-08T14:51:33Z</time>
      </trkpt>
      <trkpt lat="43.91629" lon="3.61943">
        <ele>719.72060932669</ele>
        <time>2017-05-08T14:51:33Z</time>
      </trkpt>
      <trkpt lat="43.91641" lon="3.61957">
        <ele>717.80850497826</ele>
        <time>2017-05-08T14:51:54Z</time>
      </trkpt>
      <trkpt lat="43.91642" lon="3.61962">
        <ele>717.80850497826</ele>
        <time>2017-05-08T14:51:54Z</time>
      </trkpt>
      <trkpt lat="43.91649" lon="3.61982">
        <ele>716.03064146547</ele>
        <time>2017-05-08T14:52:08Z</time>
      </trkpt>
      <trkpt lat="43.91649" lon="3.61987">
        <ele>716.03064146547</ele>
        <time>2017-05-08T14:52:13Z</time>
      </trkpt>
      <trkpt lat="43.9165" lon="3.61999">
        <ele>714.34264639558</ele>
        <time>2017-05-08T14:52:23Z</time>
      </trkpt>
      <trkpt lat="43.91652" lon="3.62007">
        <ele>714.34264639558</ele>
        <time>2017-05-08T14:52:28Z</time>
      </trkpt>
      <trkpt lat="43.91651" lon="3.62012">
        <ele>712.77487508386</ele>
        <time>2017-05-08T14:52:38Z</time>
      </trkpt>
      <trkpt lat="43.9165" lon="3.62034">
        <ele>711.23949232129</ele>
        <time>2017-05-08T14:52:53Z</time>
      </trkpt>
      <trkpt lat="43.9165" lon="3.62041">
        <ele>711.23949232129</ele>
        <time>2017-05-08T14:52:58Z</time>
      </trkpt>
      <trkpt lat="43.91646" lon="3.62064">
        <ele>709.76998146237</ele>
        <time>2017-05-08T14:53:15Z</time>
      </trkpt>
      <trkpt lat="43.91646" lon="3.62064">
        <ele>709.76998146237</ele>
        <time>2017-05-08T14:53:24Z</time>
      </trkpt>
      <trkpt lat="43.91645" lon="3.62073">
        <ele>709.76998146237</ele>
        <time>2017-05-08T14:53:24Z</time>
      </trkpt>
      <trkpt lat="43.9164" lon="3.62088">
        <ele>708.41126480733</ele>
        <time>2017-05-08T14:53:35Z</time>
      </trkpt>
      <trkpt lat="43.91612" lon="3.62152">
        <ele>707.1322760325</ele>
        <time>2017-05-08T14:54:36Z</time>
      </trkpt>
      <trkpt lat="43.91592" lon="3.62179">
        <ele>705.97574732153</ele>
        <time>2017-05-08T14:54:58Z</time>
      </trkpt>
      <trkpt lat="43.91588" lon="3.62186">
        <ele>705.97574732153</ele>
        <time>2017-05-08T14:55:03Z</time>
      </trkpt>
      <trkpt lat="43.91586" lon="3.622">
        <ele>704.95179851936</ele>
        <time>2017-05-08T14:55:22Z</time>
      </trkpt>
      <trkpt lat="43.91583" lon="3.62231">
        <ele>703.88179116131</ele>
        <time>2017-05-08T14:55:33Z</time>
      </trkpt>
      <trkpt lat="43.91579" lon="3.62256">
        <ele>702.75857219099</ele>
        <time>2017-05-08T14:55:51Z</time>
      </trkpt>
      <trkpt lat="43.9158" lon="3.62259">
        <ele>702.75857219099</ele>
        <time>2017-05-08T14:55:51Z</time>
      </trkpt>
      <trkpt lat="43.9158" lon="3.62262">
        <ele>702.75857219099</ele>
        <time>2017-05-08T14:56:16Z</time>
      </trkpt>
      <trkpt lat="43.91585" lon="3.62331">
        <ele>701.15746141094</ele>
        <time>2017-05-08T14:57:14Z</time>
      </trkpt>
      <trkpt lat="43.91585" lon="3.62344">
        <ele>699.73805711096</ele>
        <time>2017-05-08T14:57:14Z</time>
      </trkpt>
      <trkpt lat="43.91585" lon="3.62368">
        <ele>698.33253171725</ele>
        <time>2017-05-08T14:57:30Z</time>
      </trkpt>
      <trkpt lat="43.91585" lon="3.62369">
        <ele>698.33253171725</ele>
        <time>2017-05-08T14:57:31Z</time>
      </trkpt>
      <trkpt lat="43.91585" lon="3.62383">
        <ele>697.03008212262</ele>
        <time>2017-05-08T14:58:04Z</time>
      </trkpt>
      <trkpt lat="43.91577" lon="3.62427">
        <ele>695.16343861365</ele>
        <time>2017-05-08T14:58:42Z</time>
      </trkpt>
      <trkpt lat="43.91576" lon="3.62442">
        <ele>693.47033670517</ele>
        <time>2017-05-08T14:58:42Z</time>
      </trkpt>
      <trkpt lat="43.91569" lon="3.62467">
        <ele>691.98509862738</ele>
        <time>2017-05-08T14:58:58Z</time>
      </trkpt>
      <trkpt lat="43.91564" lon="3.62481">
        <ele>690.63783899291</ele>
        <time>2017-05-08T14:59:09Z</time>
      </trkpt>
      <trkpt lat="43.91564" lon="3.62482">
        <ele>690.63783899291</ele>
        <time>2017-05-08T14:59:16Z</time>
      </trkpt>
      <trkpt lat="43.91556" lon="3.62544">
        <ele>689.34879019206</ele>
        <time>2017-05-08T14:59:55Z</time>
      </trkpt>
      <trkpt lat="43.91552" lon="3.62626">
        <ele>687.76986020824</ele>
        <time>2017-05-08T15:01:39Z</time>
      </trkpt>
      <trkpt lat="43.91557" lon="3.62675">
        <ele>686.02588411801</ele>
        <time>2017-05-08T15:02:44Z</time>
      </trkpt>
      <trkpt lat="43.91558" lon="3.6268">
        <ele>686.02588411801</ele>
        <time>2017-05-08T15:02:44Z</time>
      </trkpt>
      <trkpt lat="43.91556" lon="3.62695">
        <ele>684.43455190737</ele>
        <time>2017-05-08T15:02:57Z</time>
      </trkpt>
      <trkpt lat="43.91555" lon="3.62696">
        <ele>684.43455190737</ele>
        <time>2017-05-08T15:02:58Z</time>
      </trkpt>
      <trkpt lat="43.91535" lon="3.62725">
        <ele>682.78521272376</ele>
        <time>2017-05-08T15:03:46Z</time>
      </trkpt>
      <trkpt lat="43.91533" lon="3.62728">
        <ele>682.78521272376</ele>
        <time>2017-05-08T15:03:46Z</time>
      </trkpt>
      <trkpt lat="43.91529" lon="3.62731">
        <ele>682.78521272376</ele>
        <time>2017-05-08T15:04:00Z</time>
      </trkpt>
      <trkpt lat="43.915" lon="3.62763">
        <ele>680.60886109192</ele>
        <time>2017-05-08T15:04:40Z</time>
      </trkpt>
      <trkpt lat="43.91496" lon="3.6277">
        <ele>680.60886109192</ele>
        <time>2017-05-08T15:04:54Z</time>
      </trkpt>
      <trkpt lat="43.91496" lon="3.6277">
        <ele>680.60886109192</ele>
        <time>2017-05-08T15:05:11Z</time>
      </trkpt>
      <trkpt lat="43.91489" lon="3.6278">
        <ele>678.26485869334</ele>
        <time>2017-05-08T15:05:35Z</time>
      </trkpt>
      <trkpt lat="43.91473" lon="3.62795">
        <ele>675.49561075888</ele>
        <time>2017-05-08T15:06:31Z</time>
      </trkpt>
      <trkpt lat="43.91468" lon="3.62802">
        <ele>675.49561075888</ele>
        <time>2017-05-08T15:06:31Z</time>
      </trkpt>
      <trkpt lat="43.91454" lon="3.62838">
        <ele>672.524622437</ele>
        <time>2017-05-08T15:06:58Z</time>
      </trkpt>
      <trkpt lat="43.91434" lon="3.62884">
        <ele>669.27115113569</ele>
        <time>2017-05-08T15:07:56Z</time>
      </trkpt>
      <trkpt lat="43.91374" lon="3.62935">
        <ele>665.37277924234</ele>
        <time>2017-05-08T15:09:00Z</time>
      </trkpt>
      <trkpt lat="43.91352" lon="3.6295">
        <ele>661.23030609013</ele>
        <time>2017-05-08T15:09:38Z</time>
      </trkpt>
      <trkpt lat="43.91326" lon="3.62996">
        <ele>656.65354968317</ele>
        <time>2017-05-08T15:10:04Z</time>
      </trkpt>
      <trkpt lat="43.91327" lon="3.62997">
        <ele>656.65354968317</ele>
        <time>2017-05-08T15:10:08Z</time>
      </trkpt>
      <trkpt lat="43.91326" lon="3.63007">
        <ele>656.65354968317</ele>
        <time>2017-05-08T15:10:28Z</time>
      </trkpt>
      <trkpt lat="43.91325" lon="3.63015">
        <ele>651.55378317383</ele>
        <time>2017-05-08T15:10:33Z</time>
      </trkpt>
      <trkpt lat="43.91323" lon="3.63029">
        <ele>646.71471969943</ele>
        <time>2017-05-08T15:10:43Z</time>
      </trkpt>
      <trkpt lat="43.91323" lon="3.63036">
        <ele>646.71471969943</ele>
        <time>2017-05-08T15:10:48Z</time>
      </trkpt>
      <trkpt lat="43.91322" lon="3.63041">
        <ele>646.71471969943</ele>
        <time>2017-05-08T15:10:53Z</time>
      </trkpt>
      <trkpt lat="43.91322" lon="3.63041">
        <ele>642.0545237519</ele>
        <time>2017-05-08T15:10:58Z</time>
      </trkpt>
      <trkpt lat="43.91322" lon="3.63046">
        <ele>642.0545237519</ele>
        <time>2017-05-08T15:11:23Z</time>
      </trkpt>
      <trkpt lat="43.91323" lon="3.63061">
        <ele>637.49663523908</ele>
        <time>2017-05-08T15:11:33Z</time>
      </trkpt>
      <trkpt lat="43.91324" lon="3.63068">
        <ele>637.49663523908</ele>
        <time>2017-05-08T15:11:38Z</time>
      </trkpt>
      <trkpt lat="43.91324" lon="3.63075">
        <ele>633.31545528808</ele>
        <time>2017-05-08T15:11:43Z</time>
      </trkpt>
      <trkpt lat="43.91331" lon="3.63106">
        <ele>629.50452335676</ele>
        <time>2017-05-08T15:12:03Z</time>
      </trkpt>
      <trkpt lat="43.91361" lon="3.63216">
        <ele>625.2639532532</ele>
        <time>2017-05-08T15:13:18Z</time>
      </trkpt>
      <trkpt lat="43.91373" lon="3.63289">
        <ele>621.40997364014</ele>
        <time>2017-05-08T15:14:03Z</time>
      </trkpt>
      <trkpt lat="43.91375" lon="3.63295">
        <ele>621.40997364014</ele>
        <time>2017-05-08T15:14:03Z</time>
      </trkpt>
      <trkpt lat="43.91376" lon="3.63327">
        <ele>617.76079823333</ele>
        <time>2017-05-08T15:14:31Z</time>
      </trkpt>
      <trkpt lat="43.91406" lon="3.6341">
        <ele>614.33452014902</ele>
        <time>2017-05-08T15:15:18Z</time>
      </trkpt>
      <trkpt lat="43.91409" lon="3.63417">
        <ele>614.33452014902</ele>
        <time>2017-05-08T15:15:23Z</time>
      </trkpt>
      <trkpt lat="43.91417" lon="3.63452">
        <ele>611.29115049842</ele>
        <time>2017-05-08T15:15:49Z</time>
      </trkpt>
      <trkpt lat="43.91465" lon="3.63582">
        <ele>608.80646425094</ele>
        <time>2017-05-08T15:17:21Z</time>
      </trkpt>
      <trkpt lat="43.9148" lon="3.63605">
        <ele>606.7244941953</ele>
        <time>2017-05-08T15:17:42Z</time>
      </trkpt>
      <trkpt lat="43.91508" lon="3.63645">
        <ele>605.27408713284</ele>
        <time>2017-05-08T15:18:22Z</time>
      </trkpt>
      <trkpt lat="43.91551" lon="3.63662">
        <ele>604.6365020471</ele>
        <time>2017-05-08T15:18:55Z</time>
      </trkpt>
      <trkpt lat="43.91569" lon="3.6367">
        <ele>604.4728540044</ele>
        <time>2017-05-08T15:19:12Z</time>
      </trkpt>
      <trkpt lat="43.91594" lon="3.63672">
        <ele>605.2747138566</ele>
        <time>2017-05-08T15:19:23Z</time>
      </trkpt>
      <trkpt lat="43.91598" lon="3.63674">
        <ele>605.2747138566</ele>
        <time>2017-05-08T15:19:31Z</time>
      </trkpt>
      <trkpt lat="43.91612" lon="3.63677">
        <ele>606.90387853228</ele>
        <time>2017-05-08T15:19:39Z</time>
      </trkpt>
      <trkpt lat="43.91612" lon="3.63677">
        <ele>606.90387853228</ele>
        <time>2017-05-08T15:19:40Z</time>
      </trkpt>
      <trkpt lat="43.91636" lon="3.63675">
        <ele>609.15785822162</ele>
        <time>2017-05-08T15:20:05Z</time>
      </trkpt>
      <trkpt lat="43.91653" lon="3.63664">
        <ele>611.57345051426</ele>
        <time>2017-05-08T15:20:22Z</time>
      </trkpt>
      <trkpt lat="43.91666" lon="3.63654">
        <ele>613.86515458204</ele>
        <time>2017-05-08T15:20:40Z</time>
      </trkpt>
      <trkpt lat="43.91685" lon="3.63636">
        <ele>616.11471377365</ele>
        <time>2017-05-08T15:20:50Z</time>
      </trkpt>
      <trkpt lat="43.91693" lon="3.6363">
        <ele>616.11471377365</ele>
        <time>2017-05-08T15:20:58Z</time>
      </trkpt>
      <trkpt lat="43.91724" lon="3.63612">
        <ele>618.21073472105</ele>
        <time>2017-05-08T15:21:36Z</time>
      </trkpt>
      <trkpt lat="43.91745" lon="3.63599">
        <ele>620.03615429981</ele>
        <time>2017-05-08T15:21:56Z</time>
      </trkpt>
      <trkpt lat="43.91768" lon="3.63635">
        <ele>621.44019105451</ele>
        <time>2017-05-08T15:22:50Z</time>
      </trkpt>
      <trkpt lat="43.91767" lon="3.63647">
        <ele>621.44019105451</ele>
        <time>2017-05-08T15:22:50Z</time>
      </trkpt>
      <trkpt lat="43.91767" lon="3.63683">
        <ele>622.42861352074</ele>
        <time>2017-05-08T15:23:15Z</time>
      </trkpt>
      <trkpt lat="43.91767" lon="3.63686">
        <ele>622.42861352074</ele>
        <time>2017-05-08T15:23:15Z</time>
      </trkpt>
      <trkpt lat="43.91767" lon="3.63689">
        <ele>622.42861352074</ele>
        <time>2017-05-08T15:23:21Z</time>
      </trkpt>
      <trkpt lat="43.91767" lon="3.63697">
        <ele>623.44046569612</ele>
        <time>2017-05-08T15:23:23Z</time>
      </trkpt>
      <trkpt lat="43.91769" lon="3.6371">
        <ele>624.47917778878</ele>
        <time>2017-05-08T15:23:35Z</time>
      </trkpt>
      <trkpt lat="43.91768" lon="3.63718">
        <ele>624.47917778878</ele>
        <time>2017-05-08T15:23:35Z</time>
      </trkpt>
      <trkpt lat="43.91768" lon="3.6374">
        <ele>625.50484660826</ele>
        <time>2017-05-08T15:23:56Z</time>
      </trkpt>
      <trkpt lat="43.91769" lon="3.6378">
        <ele>626.62488550112</ele>
        <time>2017-05-08T15:24:13Z</time>
      </trkpt>
      <trkpt lat="43.91778" lon="3.63803">
        <ele>627.63616535232</ele>
        <time>2017-05-08T15:24:36Z</time>
      </trkpt>
      <trkpt lat="43.91779" lon="3.63816">
        <ele>628.58161526843</ele>
        <time>2017-05-08T15:24:36Z</time>
      </trkpt>
      <trkpt lat="43.91796" lon="3.63845">
        <ele>628.9250090778</ele>
        <time>2017-05-08T15:25:18Z</time>
      </trkpt>
      <trkpt lat="43.91796" lon="3.63845">
        <ele>628.9250090778</ele>
        <time>2017-05-08T15:25:23Z</time>
      </trkpt>
      <trkpt lat="43.918" lon="3.63849">
        <ele>628.9250090778</ele>
        <time>2017-05-08T15:25:33Z</time>
      </trkpt>
      <trkpt lat="43.91806" lon="3.63853">
        <ele>628.83437186495</ele>
        <time>2017-05-08T15:25:38Z</time>
      </trkpt>
      <trkpt lat="43.91811" lon="3.63856">
        <ele>628.83437186495</ele>
        <time>2017-05-08T15:25:43Z</time>
      </trkpt>
      <trkpt lat="43.91817" lon="3.63858">
        <ele>628.5389173859</ele>
        <time>2017-05-08T15:25:48Z</time>
      </trkpt>
      <trkpt lat="43.91822" lon="3.6386">
        <ele>628.5389173859</ele>
        <time>2017-05-08T15:25:53Z</time>
      </trkpt>
      <trkpt lat="43.91827" lon="3.63862">
        <ele>628.07891622352</ele>
        <time>2017-05-08T15:25:58Z</time>
      </trkpt>
      <trkpt lat="43.91832" lon="3.63864">
        <ele>628.07891622352</ele>
        <time>2017-05-08T15:26:03Z</time>
      </trkpt>
      <trkpt lat="43.91836" lon="3.63868">
        <ele>627.55003253837</ele>
        <time>2017-05-08T15:26:08Z</time>
      </trkpt>
      <trkpt lat="43.9184" lon="3.63873">
        <ele>627.55003253837</ele>
        <time>2017-05-08T15:26:13Z</time>
      </trkpt>
      <trkpt lat="43.91845" lon="3.63879">
        <ele>626.96927700594</ele>
        <time>2017-05-08T15:26:18Z</time>
      </trkpt>
      <trkpt lat="43.91849" lon="3.63883">
        <ele>626.96927700594</ele>
        <time>2017-05-08T15:26:23Z</time>
      </trkpt>
      <trkpt lat="43.91854" lon="3.63888">
        <ele>626.45366017067</ele>
        <time>2017-05-08T15:26:28Z</time>
      </trkpt>
      <trkpt lat="43.91858" lon="3.63894">
        <ele>626.45366017067</ele>
        <time>2017-05-08T15:26:33Z</time>
      </trkpt>
      <trkpt lat="43.91863" lon="3.63898">
        <ele>625.96751887953</ele>
        <time>2017-05-08T15:26:38Z</time>
      </trkpt>
      <trkpt lat="43.91868" lon="3.63904">
        <ele>625.96751887953</ele>
        <time>2017-05-08T15:26:43Z</time>
      </trkpt>
      <trkpt lat="43.91874" lon="3.6391">
        <ele>625.47793252258</ele>
        <time>2017-05-08T15:26:48Z</time>
      </trkpt>
      <trkpt lat="43.91879" lon="3.63915">
        <ele>625.47793252258</ele>
        <time>2017-05-08T15:26:53Z</time>
      </trkpt>
      <trkpt lat="43.91885" lon="3.63919">
        <ele>624.95460384752</ele>
        <time>2017-05-08T15:26:58Z</time>
      </trkpt>
      <trkpt lat="43.9189" lon="3.63922">
        <ele>624.95460384752</ele>
        <time>2017-05-08T15:27:03Z</time>
      </trkpt>
      <trkpt lat="43.91895" lon="3.63926">
        <ele>624.38415247664</ele>
        <time>2017-05-08T15:27:08Z</time>
      </trkpt>
      <trkpt lat="43.91899" lon="3.63929">
        <ele>624.38415247664</ele>
        <time>2017-05-08T15:27:13Z</time>
      </trkpt>
      <trkpt lat="43.91902" lon="3.63932">
        <ele>624.38415247664</ele>
        <time>2017-05-08T15:27:18Z</time>
      </trkpt>
      <trkpt lat="43.91907" lon="3.63935">
        <ele>623.85536672212</ele>
        <time>2017-05-08T15:27:23Z</time>
      </trkpt>
      <trkpt lat="43.9191" lon="3.63936">
        <ele>623.85536672212</ele>
        <time>2017-05-08T15:27:28Z</time>
      </trkpt>
      <trkpt lat="43.91914" lon="3.6394">
        <ele>623.85536672212</ele>
        <time>2017-05-08T15:27:33Z</time>
      </trkpt>
      <trkpt lat="43.91918" lon="3.63945">
        <ele>623.42173975149</ele>
        <time>2017-05-08T15:27:38Z</time>
      </trkpt>
      <trkpt lat="43.91922" lon="3.63951">
        <ele>623.42173975149</ele>
        <time>2017-05-08T15:27:43Z</time>
      </trkpt>
      <trkpt lat="43.91926" lon="3.63959">
        <ele>622.98861418769</ele>
        <time>2017-05-08T15:27:48Z</time>
      </trkpt>
      <trkpt lat="43.91929" lon="3.63966">
        <ele>622.98861418769</ele>
        <time>2017-05-08T15:27:53Z</time>
      </trkpt>
      <trkpt lat="43.91931" lon="3.6398">
        <ele>622.58372212718</ele>
        <time>2017-05-08T15:28:00Z</time>
      </trkpt>
      <trkpt lat="43.91943" lon="3.64014">
        <ele>622.1751751003</ele>
        <time>2017-05-08T15:28:25Z</time>
      </trkpt>
      <trkpt lat="43.91943" lon="3.64015">
        <ele>622.1751751003</ele>
        <time>2017-05-08T15:28:25Z</time>
      </trkpt>
      <trkpt lat="43.91947" lon="3.64028">
        <ele>621.7335698273</ele>
        <time>2017-05-08T15:28:33Z</time>
      </trkpt>
      <trkpt lat="43.9195" lon="3.64035">
        <ele>621.7335698273</ele>
        <time>2017-05-08T15:28:38Z</time>
      </trkpt>
      <trkpt lat="43.91951" lon="3.64042">
        <ele>621.18864695787</ele>
        <time>2017-05-08T15:28:43Z</time>
      </trkpt>
      <trkpt lat="43.91954" lon="3.64046">
        <ele>621.18864695787</ele>
        <time>2017-05-08T15:28:48Z</time>
      </trkpt>
      <trkpt lat="43.91957" lon="3.64051">
        <ele>621.18864695787</ele>
        <time>2017-05-08T15:28:53Z</time>
      </trkpt>
      <trkpt lat="43.91961" lon="3.64055">
        <ele>620.60541497538</ele>
        <time>2017-05-08T15:28:58Z</time>
      </trkpt>
      <trkpt lat="43.91964" lon="3.6406">
        <ele>620.60541497538</ele>
        <time>2017-05-08T15:29:03Z</time>
      </trkpt>
      <trkpt lat="43.91967" lon="3.64068">
        <ele>620.01550089303</ele>
        <time>2017-05-08T15:29:08Z</time>
      </trkpt>
      <trkpt lat="43.9197" lon="3.64079">
        <ele>620.01550089303</ele>
        <time>2017-05-08T15:29:13Z</time>
      </trkpt>
      <trkpt lat="43.91974" lon="3.64087">
        <ele>619.08804942572</ele>
        <time>2017-05-08T15:29:18Z</time>
      </trkpt>
      <trkpt lat="43.91977" lon="3.64094">
        <ele>619.08804942572</ele>
        <time>2017-05-08T15:29:23Z</time>
      </trkpt>
      <trkpt lat="43.9198" lon="3.64102">
        <ele>617.97870327077</ele>
        <time>2017-05-08T15:29:28Z</time>
      </trkpt>
      <trkpt lat="43.91985" lon="3.6411">
        <ele>617.97870327077</ele>
        <time>2017-05-08T15:29:35Z</time>
      </trkpt>
      <trkpt lat="43.92009" lon="3.64151">
        <ele>616.28463962099</ele>
        <time>2017-05-08T15:30:13Z</time>
      </trkpt>
      <trkpt lat="43.92009" lon="3.64154">
        <ele>616.28463962099</ele>
        <time>2017-05-08T15:30:18Z</time>
      </trkpt>
      <trkpt lat="43.92016" lon="3.64159">
        <ele>615.14750330067</ele>
        <time>2017-05-08T15:31:01Z</time>
      </trkpt>
      <trkpt lat="43.92017" lon="3.64163">
        <ele>615.14750330067</ele>
        <time>2017-05-08T15:31:03Z</time>
      </trkpt>
      <trkpt lat="43.9202" lon="3.64166">
        <ele>615.14750330067</ele>
        <time>2017-05-08T15:31:08Z</time>
      </trkpt>
      <trkpt lat="43.92023" lon="3.6417">
        <ele>614.05275777456</ele>
        <time>2017-05-08T15:31:13Z</time>
      </trkpt>
      <trkpt lat="43.92025" lon="3.64174">
        <ele>614.05275777456</ele>
        <time>2017-05-08T15:31:18Z</time>
      </trkpt>
      <trkpt lat="43.92027" lon="3.64178">
        <ele>614.05275777456</ele>
        <time>2017-05-08T15:31:23Z</time>
      </trkpt>
      <trkpt lat="43.92029" lon="3.64181">
        <ele>612.85504671824</ele>
        <time>2017-05-08T15:31:28Z</time>
      </trkpt>
      <trkpt lat="43.92029" lon="3.64184">
        <ele>612.85504671824</ele>
        <time>2017-05-08T15:31:33Z</time>
      </trkpt>
      <trkpt lat="43.92028" lon="3.64187">
        <ele>612.85504671824</ele>
        <time>2017-05-08T15:31:38Z</time>
      </trkpt>
      <trkpt lat="43.92032" lon="3.6419">
        <ele>611.63618268328</ele>
        <time>2017-05-08T15:31:43Z</time>
      </trkpt>
      <trkpt lat="43.92037" lon="3.64192">
        <ele>611.63618268328</ele>
        <time>2017-05-08T15:31:48Z</time>
      </trkpt>
      <trkpt lat="43.92038" lon="3.6419">
        <ele>611.63618268328</ele>
        <time>2017-05-08T15:31:53Z</time>
      </trkpt>
      <trkpt lat="43.92027" lon="3.64181">
        <ele>610.65939896377</ele>
        <time>2017-05-08T15:32:46Z</time>
      </trkpt>
      <trkpt lat="43.92028" lon="3.64183">
        <ele>610.65939896377</ele>
        <time>2017-05-08T15:32:54Z</time>
      </trkpt>
      <trkpt lat="43.92031" lon="3.64197">
        <ele>609.72118703882</ele>
        <time>2017-05-08T15:34:20Z</time>
      </trkpt>
      <trkpt lat="43.92024" lon="3.64167">
        <ele>608.8778808151</ele>
        <time>2017-05-08T15:35:38Z</time>
      </trkpt>
      <trkpt lat="43.92049" lon="3.64169">
        <ele>607.92201575124</ele>
        <time>2017-05-08T15:37:36Z</time>
      </trkpt>
      <trkpt lat="43.92055" lon="3.64178">
        <ele>606.97872901652</ele>
        <time>2017-05-08T15:37:36Z</time>
      </trkpt>
      <trkpt lat="43.92083" lon="3.642">
        <ele>605.81805939221</ele>
        <time>2017-05-08T15:38:14Z</time>
      </trkpt>
      <trkpt lat="43.92087" lon="3.64203">
        <ele>605.81805939221</ele>
        <time>2017-05-08T15:38:15Z</time>
      </trkpt>
      <trkpt lat="43.921" lon="3.64205">
        <ele>604.51576165444</ele>
        <time>2017-05-08T15:38:44Z</time>
      </trkpt>
      <trkpt lat="43.92109" lon="3.64202">
        <ele>604.51576165444</ele>
        <time>2017-05-08T15:39:00Z</time>
      </trkpt>
      <trkpt lat="43.92119" lon="3.64206">
        <ele>602.45067356321</ele>
        <time>2017-05-08T15:39:23Z</time>
      </trkpt>
      <trkpt lat="43.92121" lon="3.64209">
        <ele>602.45067356321</ele>
        <time>2017-05-08T15:39:28Z</time>
      </trkpt>
      <trkpt lat="43.92123" lon="3.64212">
        <ele>602.45067356321</ele>
        <time>2017-05-08T15:39:33Z</time>
      </trkpt>
      <trkpt lat="43.92121" lon="3.64218">
        <ele>600.04374556589</ele>
        <time>2017-05-08T15:39:38Z</time>
      </trkpt>
      <trkpt lat="43.92122" lon="3.64222">
        <ele>600.04374556589</ele>
        <time>2017-05-08T15:39:43Z</time>
      </trkpt>
      <trkpt lat="43.92123" lon="3.64226">
        <ele>600.04374556589</ele>
        <time>2017-05-08T15:39:48Z</time>
      </trkpt>
      <trkpt lat="43.92126" lon="3.64233">
        <ele>597.18153952041</ele>
        <time>2017-05-08T15:40:15Z</time>
      </trkpt>
      <trkpt lat="43.92131" lon="3.64236">
        <ele>597.18153952041</ele>
        <time>2017-05-08T15:40:15Z</time>
      </trkpt>
      <trkpt lat="43.92138" lon="3.64242">
        <ele>594.06281155166</ele>
        <time>2017-05-08T15:40:32Z</time>
      </trkpt>
      <trkpt lat="43.92152" lon="3.64241">
        <ele>590.85796058517</ele>
        <time>2017-05-08T15:41:00Z</time>
      </trkpt>
      <trkpt lat="43.92161" lon="3.6425">
        <ele>587.56650577186</ele>
        <time>2017-05-08T15:41:20Z</time>
      </trkpt>
      <trkpt lat="43.92162" lon="3.6425">
        <ele>587.56650577186</ele>
        <time>2017-05-08T15:41:40Z</time>
      </trkpt>
      <trkpt lat="43.92162" lon="3.6425">
        <ele>587.56650577186</ele>
        <time>2017-05-08T15:41:40Z</time>
      </trkpt>
      <trkpt lat="43.92169" lon="3.64252">
        <ele>587.56650577186</ele>
        <time>2017-05-08T15:42:05Z</time>
      </trkpt>
      <trkpt lat="43.92189" lon="3.64287">
        <ele>582.94878809897</ele>
        <time>2017-05-08T15:42:58Z</time>
      </trkpt>
      <trkpt lat="43.92193" lon="3.64289">
        <ele>582.94878809897</ele>
        <time>2017-05-08T15:42:58Z</time>
      </trkpt>
      <trkpt lat="43.92197" lon="3.64292">
        <ele>582.94878809897</ele>
        <time>2017-05-08T15:43:14Z</time>
      </trkpt>
      <trkpt lat="43.92199" lon="3.64293">
        <ele>578.20882566888</ele>
        <time>2017-05-08T15:43:19Z</time>
      </trkpt>
      <trkpt lat="43.92203" lon="3.64295">
        <ele>578.20882566888</ele>
        <time>2017-05-08T15:43:35Z</time>
      </trkpt>
      <trkpt lat="43.92227" lon="3.64327">
        <ele>571.9260327671</ele>
        <time>2017-05-08T15:45:08Z</time>
      </trkpt>
      <trkpt lat="43.92237" lon="3.64337">
        <ele>565.90113853434</ele>
        <time>2017-05-08T15:45:25Z</time>
      </trkpt>
      <trkpt lat="43.92244" lon="3.64343">
        <ele>565.90113853434</ele>
        <time>2017-05-08T15:46:00Z</time>
      </trkpt>
      <trkpt lat="43.92253" lon="3.64345">
        <ele>558.93385600352</ele>
        <time>2017-05-08T15:46:34Z</time>
      </trkpt>
      <trkpt lat="43.92281" lon="3.64364">
        <ele>551.22589352181</ele>
        <time>2017-05-08T15:48:00Z</time>
      </trkpt>
      <trkpt lat="43.9229" lon="3.64375">
        <ele>543.36946475849</ele>
        <time>2017-05-08T15:48:08Z</time>
      </trkpt>
      <trkpt lat="43.92296" lon="3.6438">
        <ele>543.36946475849</ele>
        <time>2017-05-08T15:48:30Z</time>
      </trkpt>
      <trkpt lat="43.92296" lon="3.6438">
        <ele>543.36946475849</ele>
        <time>2017-05-08T15:48:33Z</time>
      </trkpt>
      <trkpt lat="43.92298" lon="3.64384">
        <ele>534.84697213363</ele>
        <time>2017-05-08T15:48:48Z</time>
      </trkpt>
      <trkpt lat="43.92299" lon="3.64389">
        <ele>534.84697213363</ele>
        <time>2017-05-08T15:48:53Z</time>
      </trkpt>
      <trkpt lat="43.923" lon="3.64393">
        <ele>534.84697213363</ele>
        <time>2017-05-08T15:48:58Z</time>
      </trkpt>
      <trkpt lat="43.92301" lon="3.64396">
        <ele>534.84697213363</ele>
        <time>2017-05-08T15:49:03Z</time>
      </trkpt>
      <trkpt lat="43.92302" lon="3.64407">
        <ele>526.33326147509</ele>
        <time>2017-05-08T15:49:30Z</time>
      </trkpt>
      <trkpt lat="43.92303" lon="3.64414">
        <ele>526.33326147509</ele>
        <time>2017-05-08T15:49:30Z</time>
      </trkpt>
      <trkpt lat="43.92301" lon="3.64445">
        <ele>518.22263184277</ele>
        <time>2017-05-08T15:50:08Z</time>
      </trkpt>
      <trkpt lat="43.92313" lon="3.64486">
        <ele>510.23038509921</ele>
        <time>2017-05-08T15:50:53Z</time>
      </trkpt>
      <trkpt lat="43.92313" lon="3.64488">
        <ele>510.23038509921</ele>
        <time>2017-05-08T15:50:58Z</time>
      </trkpt>
      <trkpt lat="43.92325" lon="3.64523">
        <ele>502.33696564667</ele>
        <time>2017-05-08T15:51:50Z</time>
      </trkpt>
      <trkpt lat="43.92325" lon="3.64525">
        <ele>502.33696564667</ele>
        <time>2017-05-08T15:51:54Z</time>
      </trkpt>
      <trkpt lat="43.92328" lon="3.64539">
        <ele>495.0999725407</ele>
        <time>2017-05-08T15:52:09Z</time>
      </trkpt>
      <trkpt lat="43.92332" lon="3.64544">
        <ele>495.0999725407</ele>
        <time>2017-05-08T15:52:09Z</time>
      </trkpt>
      <trkpt lat="43.92333" lon="3.64556">
        <ele>488.37082630108</ele>
        <time>2017-05-08T15:52:29Z</time>
      </trkpt>
      <trkpt lat="43.92336" lon="3.64568">
        <ele>482.28377437125</ele>
        <time>2017-05-08T15:52:38Z</time>
      </trkpt>
      <trkpt lat="43.92341" lon="3.64584">
        <ele>476.78799073483</ele>
        <time>2017-05-08T15:52:55Z</time>
      </trkpt>
      <trkpt lat="43.92352" lon="3.64611">
        <ele>471.34427222553</ele>
        <time>2017-05-08T15:53:17Z</time>
      </trkpt>
      <trkpt lat="43.92352" lon="3.64629">
        <ele>466.05767956411</ele>
        <time>2017-05-08T15:53:44Z</time>
      </trkpt>
      <trkpt lat="43.92357" lon="3.64634">
        <ele>466.05767956411</ele>
        <time>2017-05-08T15:53:44Z</time>
      </trkpt>
      <trkpt lat="43.92359" lon="3.64642">
        <ele>460.83731493141</ele>
        <time>2017-05-08T15:53:51Z</time>
      </trkpt>
      <trkpt lat="43.9236" lon="3.64643">
        <ele>460.83731493141</ele>
        <time>2017-05-08T15:53:53Z</time>
      </trkpt>
      <trkpt lat="43.9236" lon="3.64643">
        <ele>460.83731493141</ele>
        <time>2017-05-08T15:53:58Z</time>
      </trkpt>
      <trkpt lat="43.92364" lon="3.64653">
        <ele>460.83731493141</ele>
        <time>2017-05-08T15:55:18Z</time>
      </trkpt>
      <trkpt lat="43.92364" lon="3.64654">
        <ele>453.88340340679</ele>
        <time>2017-05-08T15:55:23Z</time>
      </trkpt>
      <trkpt lat="43.92365" lon="3.64658">
        <ele>453.88340340679</ele>
        <time>2017-05-08T15:55:28Z</time>
      </trkpt>
      <trkpt lat="43.92365" lon="3.64662">
        <ele>453.88340340679</ele>
        <time>2017-05-08T15:55:33Z</time>
      </trkpt>
      <trkpt lat="43.92366" lon="3.64663">
        <ele>453.88340340679</ele>
        <time>2017-05-08T15:55:38Z</time>
      </trkpt>
      <trkpt lat="43.92366" lon="3.64663">
        <ele>453.88340340679</ele>
        <time>2017-05-08T15:55:43Z</time>
      </trkpt>
      <trkpt lat="43.92366" lon="3.64669">
        <ele>447.35175310784</ele>
        <time>2017-05-08T15:55:48Z</time>
      </trkpt>
      <trkpt lat="43.92365" lon="3.6467">
        <ele>447.35175310784</ele>
        <time>2017-05-08T15:55:53Z</time>
      </trkpt>
      <trkpt lat="43.92365" lon="3.6467">
        <ele>447.35175310784</ele>
        <time>2017-05-08T15:55:58Z</time>
      </trkpt>
      <trkpt lat="43.92366" lon="3.64673">
        <ele>447.35175310784</ele>
        <time>2017-05-08T15:56:03Z</time>
      </trkpt>
      <trkpt lat="43.92366" lon="3.6468">
        <ele>441.17740502825</ele>
        <time>2017-05-08T15:56:08Z</time>
      </trkpt>
      <trkpt lat="43.92366" lon="3.64686">
        <ele>441.17740502825</ele>
        <time>2017-05-08T15:56:13Z</time>
      </trkpt>
      <trkpt lat="43.92366" lon="3.64691">
        <ele>441.17740502825</ele>
        <time>2017-05-08T15:56:18Z</time>
      </trkpt>
      <trkpt lat="43.92366" lon="3.64698">
        <ele>435.65902684204</ele>
        <time>2017-05-08T15:56:23Z</time>
      </trkpt>
      <trkpt lat="43.92363" lon="3.64704">
        <ele>435.65902684204</ele>
        <time>2017-05-08T15:56:28Z</time>
      </trkpt>
      <trkpt lat="43.9236" lon="3.64711">
        <ele>430.7108169251</ele>
        <time>2017-05-08T15:56:33Z</time>
      </trkpt>
      <trkpt lat="43.92359" lon="3.64718">
        <ele>430.7108169251</ele>
        <time>2017-05-08T15:56:38Z</time>
      </trkpt>
      <trkpt lat="43.92357" lon="3.64724">
        <ele>426.30892470265</ele>
        <time>2017-05-08T15:56:43Z</time>
      </trkpt>
      <trkpt lat="43.92356" lon="3.64729">
        <ele>426.30892470265</ele>
        <time>2017-05-08T15:56:48Z</time>
      </trkpt>
      <trkpt lat="43.92355" lon="3.64733">
        <ele>426.30892470265</ele>
        <time>2017-05-08T15:56:53Z</time>
      </trkpt>
      <trkpt lat="43.92356" lon="3.64738">
        <ele>422.34287444125</ele>
        <time>2017-05-08T15:56:58Z</time>
      </trkpt>
      <trkpt lat="43.92355" lon="3.64758">
        <ele>418.89607309246</ele>
        <time>2017-05-08T15:57:13Z</time>
      </trkpt>
      <trkpt lat="43.92355" lon="3.64759">
        <ele>418.89607309246</ele>
        <time>2017-05-08T15:57:13Z</time>
      </trkpt>
      <trkpt lat="43.92355" lon="3.64779">
        <ele>415.8999049363</ele>
        <time>2017-05-08T15:58:00Z</time>
      </trkpt>
      <trkpt lat="43.92346" lon="3.64803">
        <ele>413.31805473143</ele>
        <time>2017-05-08T15:58:16Z</time>
      </trkpt>
      <trkpt lat="43.92343" lon="3.64816">
        <ele>411.31720273514</ele>
        <time>2017-05-08T15:58:16Z</time>
      </trkpt>
      <trkpt lat="43.92306" lon="3.64953">
        <ele>408.623221878</ele>
        <time>2017-05-08T16:00:25Z</time>
      </trkpt>
      <trkpt lat="43.92303" lon="3.64955">
        <ele>408.623221878</ele>
        <time>2017-05-08T16:00:25Z</time>
      </trkpt>
      <trkpt lat="43.92303" lon="3.64957">
        <ele>408.623221878</ele>
        <time>2017-05-08T16:00:32Z</time>
      </trkpt>
      <trkpt lat="43.92296" lon="3.64962">
        <ele>405.62813743962</ele>
        <time>2017-05-08T16:00:58Z</time>
      </trkpt>
      <trkpt lat="43.92291" lon="3.64965">
        <ele>405.62813743962</ele>
        <time>2017-05-08T16:01:03Z</time>
      </trkpt>
      <trkpt lat="43.92284" lon="3.64968">
        <ele>403.09936338117</ele>
        <time>2017-05-08T16:01:13Z</time>
      </trkpt>
      <trkpt lat="43.92275" lon="3.64973">
        <ele>400.95388032983</ele>
        <time>2017-05-08T16:01:39Z</time>
      </trkpt>
      <trkpt lat="43.9227" lon="3.64975">
        <ele>400.95388032983</ele>
        <time>2017-05-08T16:01:39Z</time>
      </trkpt>
      <trkpt lat="43.92268" lon="3.6498">
        <ele>399.15681361755</ele>
        <time>2017-05-08T16:01:55Z</time>
      </trkpt>
      <trkpt lat="43.92268" lon="3.64983">
        <ele>399.15681361755</ele>
        <time>2017-05-08T16:01:55Z</time>
      </trkpt>
      <trkpt lat="43.92262" lon="3.64979">
        <ele>399.15681361755</ele>
        <time>2017-05-08T16:02:30Z</time>
      </trkpt>
      <trkpt lat="43.92232" lon="3.65001">
        <ele>396.55072060066</ele>
        <time>2017-05-08T16:03:45Z</time>
      </trkpt>
      <trkpt lat="43.9223" lon="3.65">
        <ele>396.55072060066</ele>
        <time>2017-05-08T16:03:45Z</time>
      </trkpt>
      <trkpt lat="43.922" lon="3.65021">
        <ele>393.31915984535</ele>
        <time>2017-05-08T16:04:43Z</time>
      </trkpt>
      <trkpt lat="43.92198" lon="3.65023">
        <ele>393.31915984535</ele>
        <time>2017-05-08T16:04:48Z</time>
      </trkpt>
      <trkpt lat="43.92201" lon="3.65024">
        <ele>393.31915984535</ele>
        <time>2017-05-08T16:04:59Z</time>
      </trkpt>
      <trkpt lat="43.92194" lon="3.65028">
        <ele>389.33128690911</ele>
        <time>2017-05-08T16:06:29Z</time>
      </trkpt>
      <trkpt lat="43.92189" lon="3.65042">
        <ele>385.90907895183</ele>
        <time>2017-05-08T16:06:54Z</time>
      </trkpt>
      <trkpt lat="43.92182" lon="3.6505">
        <ele>385.90907895183</ele>
        <time>2017-05-08T16:07:14Z</time>
      </trkpt>
      <trkpt lat="43.92176" lon="3.65053">
        <ele>382.83469229646</ele>
        <time>2017-05-08T16:07:14Z</time>
      </trkpt>
      <trkpt lat="43.9216" lon="3.65122">
        <ele>379.09828703317</ele>
        <time>2017-05-08T16:08:24Z</time>
      </trkpt>
      <trkpt lat="43.92158" lon="3.65139">
        <ele>375.56746115482</ele>
        <time>2017-05-08T16:08:33Z</time>
      </trkpt>
      <trkpt lat="43.92151" lon="3.65154">
        <ele>372.15203175655</ele>
        <time>2017-05-08T16:08:56Z</time>
      </trkpt>
      <trkpt lat="43.92151" lon="3.65163">
        <ele>372.15203175655</ele>
        <time>2017-05-08T16:08:56Z</time>
      </trkpt>
      <trkpt lat="43.92145" lon="3.65191">
        <ele>368.07640885986</ele>
        <time>2017-05-08T16:09:26Z</time>
      </trkpt>
      <trkpt lat="43.92139" lon="3.65197">
        <ele>368.07640885986</ele>
        <time>2017-05-08T16:09:28Z</time>
      </trkpt>
      <trkpt lat="43.92135" lon="3.65198">
        <ele>364.13702727369</ele>
        <time>2017-05-08T16:09:40Z</time>
      </trkpt>
      <trkpt lat="43.9213" lon="3.65196">
        <ele>364.13702727369</ele>
        <time>2017-05-08T16:09:43Z</time>
      </trkpt>
      <trkpt lat="43.92124" lon="3.65232">
        <ele>359.09714466277</ele>
        <time>2017-05-08T16:10:31Z</time>
      </trkpt>
      <trkpt lat="43.92123" lon="3.65236">
        <ele>359.09714466277</ele>
        <time>2017-05-08T16:10:31Z</time>
      </trkpt>
      <trkpt lat="43.92124" lon="3.65237">
        <ele>359.09714466277</ele>
        <time>2017-05-08T16:10:33Z</time>
      </trkpt>
      <trkpt lat="43.92113" lon="3.65234">
        <ele>354.42240259995</ele>
        <time>2017-05-08T16:11:00Z</time>
      </trkpt>
      <trkpt lat="43.92102" lon="3.65239">
        <ele>350.36013043382</ele>
        <time>2017-05-08T16:11:14Z</time>
      </trkpt>
      <trkpt lat="43.92113" lon="3.65279">
        <ele>346.70546973764</ele>
        <time>2017-05-08T16:11:55Z</time>
      </trkpt>
      <trkpt lat="43.92111" lon="3.65288">
        <ele>346.70546973764</ele>
        <time>2017-05-08T16:11:55Z</time>
      </trkpt>
      <trkpt lat="43.921" lon="3.65292">
        <ele>343.10897805645</ele>
        <time>2017-05-08T16:12:09Z</time>
      </trkpt>
      <trkpt lat="43.92101" lon="3.65294">
        <ele>343.10897805645</ele>
        <time>2017-05-08T16:12:13Z</time>
      </trkpt>
      <trkpt lat="43.92096" lon="3.65297">
        <ele>343.10897805645</ele>
        <time>2017-05-08T16:12:18Z</time>
      </trkpt>
      <trkpt lat="43.92091" lon="3.653">
        <ele>339.47733324041</ele>
        <time>2017-05-08T16:12:23Z</time>
      </trkpt>
      <trkpt lat="43.92086" lon="3.653">
        <ele>339.47733324041</ele>
        <time>2017-05-08T16:12:28Z</time>
      </trkpt>
      <trkpt lat="43.92082" lon="3.65299">
        <ele>339.47733324041</ele>
        <time>2017-05-08T16:12:33Z</time>
      </trkpt>
      <trkpt lat="43.92066" lon="3.65291">
        <ele>335.4792175365</ele>
        <time>2017-05-08T16:13:00Z</time>
      </trkpt>
      <trkpt lat="43.9205" lon="3.65265">
        <ele>331.47163368695</ele>
        <time>2017-05-08T16:13:33Z</time>
      </trkpt>
      <trkpt lat="43.92044" lon="3.65278">
        <ele>327.72778658899</ele>
        <time>2017-05-08T16:13:44Z</time>
      </trkpt>
      <trkpt lat="43.92049" lon="3.65285">
        <ele>327.72778658899</ele>
        <time>2017-05-08T16:13:48Z</time>
      </trkpt>
      <trkpt lat="43.92051" lon="3.65292">
        <ele>324.09660784057</ele>
        <time>2017-05-08T16:13:53Z</time>
      </trkpt>
      <trkpt lat="43.92054" lon="3.65297">
        <ele>324.09660784057</ele>
        <time>2017-05-08T16:13:58Z</time>
      </trkpt>
      <trkpt lat="43.92057" lon="3.65303">
        <ele>320.69726007278</ele>
        <time>2017-05-08T16:14:03Z</time>
      </trkpt>
      <trkpt lat="43.92059" lon="3.65309">
        <ele>320.69726007278</ele>
        <time>2017-05-08T16:14:08Z</time>
      </trkpt>
      <trkpt lat="43.92064" lon="3.65314">
        <ele>317.55308833213</ele>
        <time>2017-05-08T16:14:13Z</time>
      </trkpt>
      <trkpt lat="43.92069" lon="3.65319">
        <ele>317.55308833213</ele>
        <time>2017-05-08T16:14:18Z</time>
      </trkpt>
      <trkpt lat="43.92071" lon="3.65323">
        <ele>314.4977200892</ele>
        <time>2017-05-08T16:14:23Z</time>
      </trkpt>
      <trkpt lat="43.92076" lon="3.65326">
        <ele>314.4977200892</ele>
        <time>2017-05-08T16:14:28Z</time>
      </trkpt>
      <trkpt lat="43.92083" lon="3.65329">
        <ele>311.65062994385</ele>
        <time>2017-05-08T16:14:33Z</time>
      </trkpt>
      <trkpt lat="43.92089" lon="3.65331">
        <ele>311.65062994385</ele>
        <time>2017-05-08T16:14:38Z</time>
      </trkpt>
      <trkpt lat="43.92093" lon="3.65334">
        <ele>308.84819031184</ele>
        <time>2017-05-08T16:14:43Z</time>
      </trkpt>
      <trkpt lat="43.92097" lon="3.65335">
        <ele>308.84819031184</ele>
        <time>2017-05-08T16:14:48Z</time>
      </trkpt>
      <trkpt lat="43.92099" lon="3.65335">
        <ele>308.84819031184</ele>
        <time>2017-05-08T16:14:53Z</time>
      </trkpt>
      <trkpt lat="43.92104" lon="3.65338">
        <ele>305.72257762562</ele>
        <time>2017-05-08T16:14:58Z</time>
      </trkpt>
      <trkpt lat="43.9211" lon="3.65342">
        <ele>305.72257762562</ele>
        <time>2017-05-08T16:15:03Z</time>
      </trkpt>
      <trkpt lat="43.92115" lon="3.65343">
        <ele>302.68335495302</ele>
        <time>2017-05-08T16:15:08Z</time>
      </trkpt>
      <trkpt lat="43.92119" lon="3.65346">
        <ele>302.68335495302</ele>
        <time>2017-05-08T16:15:13Z</time>
      </trkpt>
      <trkpt lat="43.92123" lon="3.6535">
        <ele>299.72074356768</ele>
        <time>2017-05-08T16:15:18Z</time>
      </trkpt>
      <trkpt lat="43.92169" lon="3.6539">
        <ele>295.87442403845</ele>
        <time>2017-05-08T16:16:01Z</time>
      </trkpt>
      <trkpt lat="43.92199" lon="3.65385">
        <ele>291.20832318322</ele>
        <time>2017-05-08T16:16:48Z</time>
      </trkpt>
      <trkpt lat="43.92219" lon="3.65379">
        <ele>286.56225738561</ele>
        <time>2017-05-08T16:17:09Z</time>
      </trkpt>
      <trkpt lat="43.92236" lon="3.6536">
        <ele>282.20998466225</ele>
        <time>2017-05-08T16:17:24Z</time>
      </trkpt>
      <trkpt lat="43.92231" lon="3.65369">
        <ele>282.20998466225</ele>
        <time>2017-05-08T16:17:41Z</time>
      </trkpt>
      <trkpt lat="43.92234" lon="3.65371">
        <ele>278.17382238037</ele>
        <time>2017-05-08T16:17:43Z</time>
      </trkpt>
      <trkpt lat="43.92232" lon="3.65384">
        <ele>274.63214883745</ele>
        <time>2017-05-08T16:17:59Z</time>
      </trkpt>
      <trkpt lat="43.92226" lon="3.65394">
        <ele>271.51833489935</ele>
        <time>2017-05-08T16:17:59Z</time>
      </trkpt>
      <trkpt lat="43.92213" lon="3.65414">
        <ele>268.72627314279</ele>
        <time>2017-05-08T16:18:14Z</time>
      </trkpt>
      <trkpt lat="43.92208" lon="3.65446">
        <ele>266.12798920607</ele>
        <time>2017-05-08T16:18:41Z</time>
      </trkpt>
      <trkpt lat="43.92219" lon="3.65462">
        <ele>263.92147919044</ele>
        <time>2017-05-08T16:18:41Z</time>
      </trkpt>
      <trkpt lat="43.92219" lon="3.65476">
        <ele>262.14506044032</ele>
        <time>2017-05-08T16:19:00Z</time>
      </trkpt>
      <trkpt lat="43.92188" lon="3.655">
        <ele>260.64577004091</ele>
        <time>2017-05-08T16:19:36Z</time>
      </trkpt>
      <trkpt lat="43.92185" lon="3.65515">
        <ele>259.49736789001</ele>
        <time>2017-05-08T16:19:36Z</time>
      </trkpt>
      <trkpt lat="43.92168" lon="3.65554">
        <ele>258.68085461721</ele>
        <time>2017-05-08T16:20:08Z</time>
      </trkpt>
      <trkpt lat="43.92156" lon="3.65566">
        <ele>258.1489980604</ele>
        <time>2017-05-08T16:20:08Z</time>
      </trkpt>
      <trkpt lat="43.92154" lon="3.65568">
        <ele>258.1489980604</ele>
        <time>2017-05-08T16:20:09Z</time>
      </trkpt>
      <trkpt lat="43.92159" lon="3.65592">
        <ele>257.78532198659</ele>
        <time>2017-05-08T16:20:23Z</time>
      </trkpt>
      <trkpt lat="43.92185" lon="3.65678">
        <ele>257.95715877562</ele>
        <time>2017-05-08T16:21:26Z</time>
      </trkpt>
      <trkpt lat="43.92212" lon="3.65714">
        <ele>257.92269488331</ele>
        <time>2017-05-08T16:21:48Z</time>
      </trkpt>
      <trkpt lat="43.92213" lon="3.65719">
        <ele>257.92269488331</ele>
        <time>2017-05-08T16:21:53Z</time>
      </trkpt>
      <trkpt lat="43.92224" lon="3.65742">
        <ele>257.61505691458</ele>
        <time>2017-05-08T16:22:10Z</time>
      </trkpt>
      <trkpt lat="43.92239" lon="3.65789">
        <ele>256.29593105608</ele>
        <time>2017-05-08T16:22:48Z</time>
      </trkpt>
      <trkpt lat="43.92243" lon="3.6579">
        <ele>256.29593105608</ele>
        <time>2017-05-08T16:22:58Z</time>
      </trkpt>
      <trkpt lat="43.92246" lon="3.65794">
        <ele>256.29593105608</ele>
        <time>2017-05-08T16:23:03Z</time>
      </trkpt>
      <trkpt lat="43.92251" lon="3.65799">
        <ele>253.96161090901</ele>
        <time>2017-05-08T16:23:08Z</time>
      </trkpt>
      <trkpt lat="43.92255" lon="3.65802">
        <ele>253.96161090901</ele>
        <time>2017-05-08T16:23:13Z</time>
      </trkpt>
      <trkpt lat="43.9226" lon="3.65806">
        <ele>251.64932455165</ele>
        <time>2017-05-08T16:23:18Z</time>
      </trkpt>
      <trkpt lat="43.92265" lon="3.65811">
        <ele>251.64932455165</ele>
        <time>2017-05-08T16:23:23Z</time>
      </trkpt>
      <trkpt lat="43.92273" lon="3.65807">
        <ele>249.2538324856</ele>
        <time>2017-05-08T16:23:37Z</time>
      </trkpt>
      <trkpt lat="43.9228" lon="3.65753">
        <ele>246.62041887008</ele>
        <time>2017-05-08T16:24:23Z</time>
      </trkpt>
      <trkpt lat="43.92282" lon="3.65746">
        <ele>246.62041887008</ele>
        <time>2017-05-08T16:24:24Z</time>
      </trkpt>
      <trkpt lat="43.92285" lon="3.65736">
        <ele>244.21186275307</ele>
        <time>2017-05-08T16:24:42Z</time>
      </trkpt>
      <trkpt lat="43.92322" lon="3.65702">
        <ele>241.66389155495</ele>
        <time>2017-05-08T16:25:21Z</time>
      </trkpt>
      <trkpt lat="43.9234" lon="3.6571">
        <ele>239.37452716724</ele>
        <time>2017-05-08T16:25:30Z</time>
      </trkpt>
      <trkpt lat="43.92341" lon="3.65711">
        <ele>239.37452716724</ele>
        <time>2017-05-08T16:25:31Z</time>
      </trkpt>
      <trkpt lat="43.92342" lon="3.65712">
        <ele>239.37452716724</ele>
        <time>2017-05-08T16:25:33Z</time>
      </trkpt>
      <trkpt lat="43.92357" lon="3.65722">
        <ele>237.20760730274</ele>
        <time>2017-05-08T16:25:52Z</time>
      </trkpt>
      <trkpt lat="43.92358" lon="3.65722">
        <ele>237.20760730274</ele>
        <time>2017-05-08T16:25:53Z</time>
      </trkpt>
      <trkpt lat="43.92382" lon="3.65705">
        <ele>234.20094368758</ele>
        <time>2017-05-08T16:26:24Z</time>
      </trkpt>
      <trkpt lat="43.92401" lon="3.65716">
        <ele>230.25814591498</ele>
        <time>2017-05-08T16:27:09Z</time>
      </trkpt>
      <trkpt lat="43.92412" lon="3.65724">
        <ele>226.63290089301</ele>
        <time>2017-05-08T16:27:09Z</time>
      </trkpt>
      <trkpt lat="43.92423" lon="3.65743">
        <ele>223.10256425262</ele>
        <time>2017-05-08T16:27:26Z</time>
      </trkpt>
      <trkpt lat="43.92421" lon="3.65747">
        <ele>223.10256425262</ele>
        <time>2017-05-08T16:27:26Z</time>
      </trkpt>
      <trkpt lat="43.92404" lon="3.65778">
        <ele>219.59038646694</ele>
        <time>2017-05-08T16:28:13Z</time>
      </trkpt>
      <trkpt lat="43.92377" lon="3.65799">
        <ele>216.4864515516</ele>
        <time>2017-05-08T16:28:28Z</time>
      </trkpt>
      <trkpt lat="43.92372" lon="3.6581">
        <ele>216.4864515516</ele>
        <time>2017-05-08T16:28:28Z</time>
      </trkpt>
      <trkpt lat="43.92391" lon="3.65818">
        <ele>213.41615395452</ele>
        <time>2017-05-08T16:28:48Z</time>
      </trkpt>
      <trkpt lat="43.92391" lon="3.65819">
        <ele>213.41615395452</ele>
        <time>2017-05-08T16:28:53Z</time>
      </trkpt>
      <trkpt lat="43.92394" lon="3.65821">
        <ele>213.41615395452</ele>
        <time>2017-05-08T16:29:03Z</time>
      </trkpt>
      <trkpt lat="43.92401" lon="3.65823">
        <ele>210.43589043413</ele>
        <time>2017-05-08T16:29:08Z</time>
      </trkpt>
      <trkpt lat="43.92403" lon="3.65829">
        <ele>210.43589043413</ele>
        <time>2017-05-08T16:29:13Z</time>
      </trkpt>
      <trkpt lat="43.92406" lon="3.65835">
        <ele>207.55448702057</ele>
        <time>2017-05-08T16:29:24Z</time>
      </trkpt>
      <trkpt lat="43.92439" lon="3.65865">
        <ele>204.66460559178</ele>
        <time>2017-05-08T16:29:53Z</time>
      </trkpt>
      <trkpt lat="43.9246" lon="3.65872">
        <ele>202.04155001421</ele>
        <time>2017-05-08T16:30:18Z</time>
      </trkpt>
      <trkpt lat="43.92541" lon="3.6591">
        <ele>199.16149011478</ele>
        <time>2017-05-08T16:31:25Z</time>
      </trkpt>
      <trkpt lat="43.92668" lon="3.65956">
        <ele>194.57428252157</ele>
        <time>2017-05-08T16:33:31Z</time>
      </trkpt>
      <trkpt lat="43.92731" lon="3.65955">
        <ele>187.64726079615</ele>
        <time>2017-05-08T16:35:02Z</time>
      </trkpt>
      <trkpt lat="43.92711" lon="3.6598">
        <ele>181.08652969901</ele>
        <time>2017-05-08T16:35:21Z</time>
      </trkpt>
      <trkpt lat="43.92708" lon="3.65993">
        <ele>175.06374936972</ele>
        <time>2017-05-08T16:35:30Z</time>
      </trkpt>
      <trkpt lat="43.92704" lon="3.66046">
        <ele>169.11672732132</ele>
        <time>2017-05-08T16:35:59Z</time>
      </trkpt>
      <trkpt lat="43.92614" lon="3.66192">
        <ele>164.94977677551</ele>
        <time>2017-05-08T16:37:49Z</time>
      </trkpt>
      <trkpt lat="43.92609" lon="3.66197">
        <ele>164.94977677551</ele>
        <time>2017-05-08T16:37:53Z</time>
      </trkpt>
      <trkpt lat="43.92587" lon="3.66223">
        <ele>161.64380058684</ele>
        <time>2017-05-08T16:38:12Z</time>
      </trkpt>
      <trkpt lat="43.92583" lon="3.66248">
        <ele>158.83467671284</ele>
        <time>2017-05-08T16:38:48Z</time>
      </trkpt>
      <trkpt lat="43.92581" lon="3.66252">
        <ele>158.83467671284</ele>
        <time>2017-05-08T16:38:48Z</time>
      </trkpt>
      <trkpt lat="43.92574" lon="3.66271">
        <ele>156.68792263725</ele>
        <time>2017-05-08T16:39:01Z</time>
      </trkpt>
      <trkpt lat="43.92583" lon="3.66257">
        <ele>154.67761905097</ele>
        <time>2017-05-08T16:40:33Z</time>
      </trkpt>
      <trkpt lat="43.92588" lon="3.66241">
        <ele>153.00774450345</ele>
        <time>2017-05-08T16:40:55Z</time>
      </trkpt>
      <trkpt lat="43.92588" lon="3.66241">
        <ele>153.00774450345</ele>
        <time>2017-05-08T16:40:55Z</time>
      </trkpt>
      <trkpt lat="43.92589" lon="3.66228">
        <ele>151.7365652109</ele>
        <time>2017-05-08T16:41:16Z</time>
      </trkpt>
      <trkpt lat="43.92593" lon="3.66218">
        <ele>151.7365652109</ele>
        <time>2017-05-08T16:41:16Z</time>
      </trkpt>
      <trkpt lat="43.92601" lon="3.66198">
        <ele>150.75836896128</ele>
        <time>2017-05-08T16:41:39Z</time>
      </trkpt>
      <trkpt lat="43.92607" lon="3.66195">
        <ele>150.75836896128</ele>
        <time>2017-05-08T16:41:39Z</time>
      </trkpt>
      <trkpt lat="43.92611" lon="3.66188">
        <ele>150.03199132243</ele>
        <time>2017-05-08T16:41:49Z</time>
      </trkpt>
      <trkpt lat="43.92614" lon="3.66186">
        <ele>150.03199132243</ele>
        <time>2017-05-08T16:41:58Z</time>
      </trkpt>
      <trkpt lat="43.9262" lon="3.6618">
        <ele>149.59061924866</ele>
        <time>2017-05-08T16:41:58Z</time>
      </trkpt>
      <trkpt lat="43.92628" lon="3.66175">
        <ele>149.59061924866</ele>
        <time>2017-05-08T16:42:15Z</time>
      </trkpt>
      <trkpt lat="43.92635" lon="3.66175">
        <ele>149.47861160124</ele>
        <time>2017-05-08T16:42:15Z</time>
      </trkpt>
      <trkpt lat="43.92643" lon="3.66172">
        <ele>149.47861160124</ele>
        <time>2017-05-08T16:42:25Z</time>
      </trkpt>
      <trkpt lat="43.92644" lon="3.66172">
        <ele>149.47861160124</ele>
        <time>2017-05-08T16:42:34Z</time>
      </trkpt>
      <trkpt lat="43.9266" lon="3.6615">
        <ele>149.63528587286</ele>
        <time>2017-05-08T16:42:51Z</time>
      </trkpt>
      <trkpt lat="43.92672" lon="3.66134">
        <ele>150.00370396722</ele>
        <time>2017-05-08T16:42:51Z</time>
      </trkpt>
      <trkpt lat="43.92707" lon="3.66048">
        <ele>150.67469013332</ele>
        <time>2017-05-08T16:43:44Z</time>
      </trkpt>
      <trkpt lat="43.92723" lon="3.65995">
        <ele>151.54428835574</ele>
        <time>2017-05-08T16:44:20Z</time>
      </trkpt>
      <trkpt lat="43.92735" lon="3.65968">
        <ele>152.48690694393</ele>
        <time>2017-05-08T16:44:40Z</time>
      </trkpt>
      <trkpt lat="43.92755" lon="3.65929">
        <ele>153.41492625175</ele>
        <time>2017-05-08T16:45:03Z</time>
      </trkpt>
      <trkpt lat="43.9276" lon="3.65925">
        <ele>153.41492625175</ele>
        <time>2017-05-08T16:45:05Z</time>
      </trkpt>
      <trkpt lat="43.92772" lon="3.65906">
        <ele>154.39146457893</ele>
        <time>2017-05-08T16:45:25Z</time>
      </trkpt>
      <trkpt lat="43.92784" lon="3.65885">
        <ele>155.51826943255</ele>
        <time>2017-05-08T16:45:41Z</time>
      </trkpt>
      <trkpt lat="43.92802" lon="3.65839">
        <ele>156.68762316387</ele>
        <time>2017-05-08T16:46:09Z</time>
      </trkpt>
      <trkpt lat="43.92796" lon="3.65841">
        <ele>156.68762316387</ele>
        <time>2017-05-08T16:46:32Z</time>
      </trkpt>
      <trkpt lat="43.92794" lon="3.65843">
        <ele>156.68762316387</ele>
        <time>2017-05-08T16:46:33Z</time>
      </trkpt>
      <trkpt lat="43.92837" lon="3.65806">
        <ele>157.65569270988</ele>
        <time>2017-05-08T16:47:34Z</time>
      </trkpt>
      <trkpt lat="43.92855" lon="3.6578">
        <ele>158.87466092632</ele>
        <time>2017-05-08T16:47:42Z</time>
      </trkpt>
      <trkpt lat="43.92858" lon="3.65774">
        <ele>158.87466092632</ele>
        <time>2017-05-08T16:47:48Z</time>
      </trkpt>
      <trkpt lat="43.92863" lon="3.65769">
        <ele>160.08569731802</ele>
        <time>2017-05-08T16:47:53Z</time>
      </trkpt>
      <trkpt lat="43.9287" lon="3.65763">
        <ele>160.08569731802</ele>
        <time>2017-05-08T16:48:03Z</time>
      </trkpt>
      <trkpt lat="43.92874" lon="3.65758">
        <ele>161.51040493184</ele>
        <time>2017-05-08T16:48:08Z</time>
      </trkpt>
      <trkpt lat="43.92886" lon="3.65749">
        <ele>162.8926056012</ele>
        <time>2017-05-08T16:48:18Z</time>
      </trkpt>
      <trkpt lat="43.92938" lon="3.65714">
        <ele>163.2171195847</ele>
        <time>2017-05-08T16:49:03Z</time>
      </trkpt>
      <trkpt lat="43.9294" lon="3.6571">
        <ele>163.2171195847</ele>
        <time>2017-05-08T16:49:09Z</time>
      </trkpt>
      <trkpt lat="43.92967" lon="3.65691">
        <ele>163.80912086308</ele>
        <time>2017-05-08T16:49:34Z</time>
      </trkpt>
      <trkpt lat="43.92996" lon="3.65656">
        <ele>165.29069107914</ele>
        <time>2017-05-08T16:50:16Z</time>
      </trkpt>
      <trkpt lat="43.93008" lon="3.65656">
        <ele>166.78047036332</ele>
        <time>2017-05-08T16:50:16Z</time>
      </trkpt>
      <trkpt lat="43.93012" lon="3.65659">
        <ele>166.78047036332</ele>
        <time>2017-05-08T16:50:33Z</time>
      </trkpt>
    </trkseg>
  </trk>
</gpx>